Observation data for Dell City 1N on 11/17/2019      Previous  Date       Current Mesonet Observations  Soil Data  Daily Summary Page  Observations in Plain Language
KDC1 170600Z 32006KT 04/M01 A3009 RMK A01 T00431006  RH  071%=      5-min Rain = 0
KDC1 170601Z 32006KT 04/M01 A3009 RMK A01 T00431006  RH  070%=      5-min Rain = 0
KDC1 170602Z 30007KT 04/M01 A3009 RMK A01 T00431006  RH  070%=      5-min Rain = 0
KDC1 170603Z 31005KT 04/M01 A3009 RMK A01 T00421007  RH  071%=      5-min Rain = 0
KDC1 170604Z 30006KT 04/M01 A3009 RMK A01 T00421006  RH  071%=      5-min Rain = 0
KDC1 170605Z 30006KT 04/M01 A3009 RMK A01 T00411007  RH  071%=      5-min Rain = 0
KDC1 170606Z 31006KT 04/M01 A301 RMK A01 T00411006  RH  071%=      5-min Rain = 0
KDC1 170607Z 31006KT 04/M01 A301 RMK A01 T00411006  RH  072%=      5-min Rain = 0
KDC1 170608Z 31007KT 04/M01 A301 RMK A01 T00411005  RH  072%=      5-min Rain = 0
KDC1 170609Z 31007KT 04/M00 A301 RMK A01 T00421004  RH  072%=      5-min Rain = 0
KDC1 170610Z 30007KT 04/M00 A301 RMK A01 T00431003  RH  072%=      5-min Rain = 0
KDC1 170611Z 30007KT 04/M00 A301 RMK A01 T00441003  RH  071%=      5-min Rain = 0
KDC1 170612Z 31006KT 04/M00 A301 RMK A01 T00441003  RH  071%=      5-min Rain = 0
KDC1 170613Z 30006KT 04/M00 A301 RMK A01 T00431003  RH  072%=      5-min Rain = 0
KDC1 170614Z 30007KT 04/M00 A301 RMK A01 T00421004  RH  072%=      5-min Rain = 0
KDC1 170615Z 30007KT 04/M00 A301 RMK A01 T00411004  RH  072%=      5-min Rain = 0
KDC1 170616Z 30007KT 04/M00 A301 RMK A01 T00401004  RH  073%=      5-min Rain = 0
KDC1 170617Z 30007KT 04/M00 A301 RMK A01 T00401003  RH  074%=      5-min Rain = 0
KDC1 170618Z 30007KT 04/M00 A301 RMK A01 T00391003  RH  074%=      5-min Rain = 0
KDC1 170619Z 30006KT 04/M00 A301 RMK A01 T00391003  RH  074%=      5-min Rain = 0
KDC1 170620Z 30006KT 04/M00 A301 RMK A01 T00391002  RH  074%=      5-min Rain = 0
KDC1 170621Z 29007KT 04/M00 A301 RMK A01 T00391002  RH  075%=      5-min Rain = 0
KDC1 170622Z 30007KT 04/M00 A301 RMK A01 T00381002  RH  075%=      5-min Rain = 0
KDC1 170623Z 30006KT 04/M00 A301 RMK A01 T00381002  RH  075%=      5-min Rain = 0
KDC1 170624Z 30006KT 04/M00 A301 RMK A01 T00381001  RH  075%=      5-min Rain = 0
KDC1 170625Z 30006KT 04/M00 A301 RMK A01 T00381002  RH  076%=      5-min Rain = 0
KDC1 170626Z 30006KT 04/M00 A301 RMK A01 T00371001  RH  076%=      5-min Rain = 0
KDC1 170627Z 29006KT 04/M00 A301 RMK A01 T00371001  RH  076%=      5-min Rain = 0
KDC1 170628Z 28006KT 04/M00 A301 RMK A01 T00371001  RH  076%=      5-min Rain = 0
KDC1 170629Z 28006KT 04/00 A301 RMK A01 T003700-0  RH  076%=      5-min Rain = 0
KDC1 170630Z 29006KT 04/00 A301 RMK A01 T00380001  RH  077%=      5-min Rain = 0
KDC1 170631Z 28005KT 04/00 A301 RMK A01 T00390002  RH  077%=      5-min Rain = 0
KDC1 170632Z 28005KT 04/00 A301 RMK A01 T00400003  RH  077%=      5-min Rain = 0
KDC1 170633Z 28005KT 04/00 A301 RMK A01 T00410003  RH  076%=      5-min Rain = 0
KDC1 170634Z 28006KT 04/00 A301 RMK A01 T00420003  RH  076%=      5-min Rain = 0
KDC1 170635Z 28007KT 04/00 A301 RMK A01 T00430004  RH  076%=      5-min Rain = 0
KDC1 170636Z 28007KT 04/00 A301 RMK A01 T00430003  RH  075%=      5-min Rain = 0
KDC1 170637Z 28007KT 04/00 A301 RMK A01 T00430002  RH  075%=      5-min Rain = 0
KDC1 170638Z 28007KT 04/00 A301 RMK A01 T00420001  RH  075%=      5-min Rain = 0
KDC1 170639Z 28006KT 04/00 A301 RMK A01 T00410001  RH  075%=      5-min Rain = 0
KDC1 170640Z 28007KT 04/00 A301 RMK A01 T00410000  RH  075%=      5-min Rain = 0
KDC1 170641Z 28007KT 04/00 A301 RMK A01 T00400000  RH  075%=      5-min Rain = 0
KDC1 170642Z 28007KT 04/00 A301 RMK A01 T00400000  RH  075%=      5-min Rain = 0
KDC1 170643Z 28007KT 04/00 A301 RMK A01 T00400000  RH  075%=      5-min Rain = 0
KDC1 170644Z 28007KT 04/00 A301 RMK A01 T00400000  RH  075%=      5-min Rain = 0
KDC1 170645Z 28007KT 04/00 A301 RMK A01 T004000-0  RH  075%=      5-min Rain = 0
KDC1 170646Z 29007KT 04/00 A301 RMK A01 T00410000  RH  075%=      5-min Rain = 0
KDC1 170647Z 29008KT 04/00 A301 RMK A01 T004100-0  RH  075%=      5-min Rain = 0
KDC1 170648Z 29007KT 04/00 A301 RMK A01 T00410000  RH  074%=      5-min Rain = 0
KDC1 170649Z 29007KT 04/00 A301 RMK A01 T00420000  RH  074%=      5-min Rain = 0
KDC1 170650Z 29007KT 04/00 A3009 RMK A01 T00430000  RH  074%=      5-min Rain = 0
KDC1 170651Z 29007KT 04/00 A3009 RMK A01 T00430000  RH  074%=      5-min Rain = 0
KDC1 170652Z 29007KT 04/00 A3009 RMK A01 T004300-0  RH  074%=      5-min Rain = 0
KDC1 170653Z 29006KT 04/00 A3009 RMK A01 T00430000  RH  074%=      5-min Rain = 0
KDC1 170654Z 29006KT 04/00 A3009 RMK A01 T00440001  RH  074%=      5-min Rain = 0
KDC1 170655Z 28006KT 04/00 A301 RMK A01 T00440001  RH  074%=      5-min Rain = 0
KDC1 170656Z 28006KT 04/00 A301 RMK A01 T00440001  RH  074%=      5-min Rain = 0
KDC1 170657Z 28006KT 04/00 A301 RMK A01 T00440001  RH  074%=      5-min Rain = 0
KDC1 170658Z 27006KT 04/00 A301 RMK A01 T00440002  RH  074%=      5-min Rain = 0
KDC1 170659Z 26006KT 04/00 A301 RMK A01 T00440002  RH  074%=      5-min Rain = 0
KDC1 170700Z 26006KT 05/00 A301 RMK A01 T00450002  RH  073%=      5-min Rain = 0
KDC1 170701Z 26005KT 05/00 A301 RMK A01 T00460001  RH  073%=      5-min Rain = 0
KDC1 170702Z 27006KT 05/00 A301 RMK A01 T00450001  RH  073%=      5-min Rain = 0
KDC1 170703Z 27006KT 05/00 A301 RMK A01 T00450000  RH  073%=      5-min Rain = 0
KDC1 170704Z 27005KT 05/00 A301 RMK A01 T004600-0  RH  072%=      5-min Rain = 0
KDC1 170705Z 27005KT 05/M00 A301 RMK A01 T00461001  RH  071%=      5-min Rain = 0
KDC1 170706Z 27005KT 05/M00 A301 RMK A01 T00471001  RH  071%=      5-min Rain = 0
KDC1 170707Z 27004KT 05/M00 A301 RMK A01 T00461002  RH  071%=      5-min Rain = 0
KDC1 170708Z 27004KT 05/M00 A301 RMK A01 T00461002  RH  071%=      5-min Rain = 0
KDC1 170709Z 27004KT 05/M00 A301 RMK A01 T00451003  RH  071%=      5-min Rain = 0
KDC1 170710Z 26003KT 04/M00 A301 RMK A01 T00441002  RH  072%=      5-min Rain = 0
KDC1 170711Z 26003KT 04/M00 A301 RMK A01 T00441001  RH  072%=      5-min Rain = 0
KDC1 170712Z 27004KT 04/M00 A301 RMK A01 T00441001  RH  072%=      5-min Rain = 0
KDC1 170713Z 28004KT 04/M00 A301 RMK A01 T00441002  RH  072%=      5-min Rain = 0
KDC1 170714Z 28005KT 04/M00 A301 RMK A01 T00431002  RH  073%=      5-min Rain = 0
KDC1 170715Z 27004KT 04/M00 A301 RMK A01 T00421002  RH  073%=      5-min Rain = 0
KDC1 170716Z 27004KT 04/M00 A301 RMK A01 T00431001  RH  073%=      5-min Rain = 0
KDC1 170717Z 27004KT 04/M00 A301 RMK A01 T00431001  RH  073%=      5-min Rain = 0
KDC1 170718Z 28004KT 04/M00 A301 RMK A01 T00431001  RH  073%=      5-min Rain = 0
KDC1 170719Z 28003KT 05/M00 A301 RMK A01 T00451001  RH  072%=      5-min Rain = 0
KDC1 170720Z 28003KT 05/M00 A301 RMK A01 T00451001  RH  072%=      5-min Rain = 0
KDC1 170721Z 27002KT 04/M00 A301 RMK A01 T00441002  RH  072%=      5-min Rain = 0
KDC1 170722Z 28002KT 04/M00 A301 RMK A01 T00431003  RH  072%=      5-min Rain = 0
KDC1 170723Z 27002KT 04/M00 A301 RMK A01 T00421003  RH  072%=      5-min Rain = 0
KDC1 170724Z 28003KT 04/M00 A301 RMK A01 T00411003  RH  073%=      5-min Rain = 0
KDC1 170725Z 28003KT 04/M00 A301 RMK A01 T00401004  RH  073%=      5-min Rain = 0
KDC1 170726Z 29003KT 04/M00 A301 RMK A01 T00381004  RH  074%=      5-min Rain = 0
KDC1 170727Z 29003KT 04/M00 A301 RMK A01 T00381004  RH  074%=      5-min Rain = 0
KDC1 170728Z 29003KT 04/M00 A301 RMK A01 T00371004  RH  074%=      5-min Rain = 0
KDC1 170729Z 29004KT 04/M00 A301 RMK A01 T00371004  RH  075%=      5-min Rain = 0
KDC1 170730Z 29005KT 04/M00 A301 RMK A01 T00361004  RH  075%=      5-min Rain = 0
KDC1 170731Z 30005KT 04/M00 A301 RMK A01 T00351004  RH  076%=      5-min Rain = 0
KDC1 170732Z 30005KT 03/M01 A301 RMK A01 T00341005  RH  076%=      5-min Rain = 0
KDC1 170733Z 30005KT 03/M01 A301 RMK A01 T00321006  RH  076%=      5-min Rain = 0
KDC1 170734Z 30005KT 03/M01 A301 RMK A01 T00311006  RH  077%=      5-min Rain = 0
KDC1 170735Z 30005KT 03/M01 A301 RMK A01 T00311005  RH  078%=      5-min Rain = 0
KDC1 170736Z 30004KT 03/M00 A301 RMK A01 T00311004  RH  078%=      5-min Rain = 0
KDC1 170737Z 29004KT 03/M00 A301 RMK A01 T00321004  RH  077%=      5-min Rain = 0
KDC1 170738Z 29005KT 03/M00 A301 RMK A01 T00331003  RH  077%=      5-min Rain = 0
KDC1 170739Z 29005KT 03/M00 A301 RMK A01 T00341002  RH  077%=      5-min Rain = 0
KDC1 170740Z 29005KT 04/M00 A301 RMK A01 T00351001  RH  077%=      5-min Rain = 0
KDC1 170741Z 29005KT 04/00 A301 RMK A01 T00360000  RH  077%=      5-min Rain = 0
KDC1 170742Z 29006KT 04/00 A301 RMK A01 T00370001  RH  077%=      5-min Rain = 0
KDC1 170743Z 29006KT 04/00 A301 RMK A01 T003700-0  RH  076%=      5-min Rain = 0
KDC1 170744Z 29006KT 04/00 A301 RMK A01 T00370000  RH  077%=      5-min Rain = 0
KDC1 170745Z 29005KT 04/00 A301 RMK A01 T00370001  RH  078%=      5-min Rain = 0
KDC1 170746Z 29006KT 04/00 A301 RMK A01 T00370002  RH  078%=      5-min Rain = 0
KDC1 170747Z 29006KT 04/00 A301 RMK A01 T00380003  RH  078%=      5-min Rain = 0
KDC1 170748Z 29006KT 04/00 A301 RMK A01 T00380003  RH  078%=      5-min Rain = 0
KDC1 170749Z 29007KT 04/00 A301 RMK A01 T00380002  RH  077%=      5-min Rain = 0
KDC1 170750Z 29007KT 04/00 A301 RMK A01 T00380001  RH  077%=      5-min Rain = 0
KDC1 170751Z 29007KT 04/M00 A301 RMK A01 T00361001  RH  077%=      5-min Rain = 0
KDC1 170752Z 30007KT 03/M00 A301 RMK A01 T00341002  RH  077%=      5-min Rain = 0
KDC1 170753Z 30006KT 03/M00 A301 RMK A01 T00331003  RH  077%=      5-min Rain = 0
KDC1 170754Z 30006KT 03/M00 A301 RMK A01 T00321004  RH  078%=      5-min Rain = 0
KDC1 170755Z 30006KT 03/M01 A301 RMK A01 T00301005  RH  078%=      5-min Rain = 0
KDC1 170756Z 29006KT 03/M00 A301 RMK A01 T00301004  RH  078%=      5-min Rain = 0
KDC1 170757Z 30006KT 03/M00 A301 RMK A01 T00301004  RH  078%=      5-min Rain = 0
KDC1 170758Z 30006KT 03/M00 A301 RMK A01 T00301004  RH  078%=      5-min Rain = 0
KDC1 170759Z 30006KT 03/M00 A301 RMK A01 T00311004  RH  078%=      5-min Rain = 0
KDC1 170800Z 30005KT 03/M00 A301 RMK A01 T00311004  RH  078%=      5-min Rain = 0
KDC1 170801Z 29005KT 03/M00 A301 RMK A01 T00311003  RH  078%=      5-min Rain = 0
KDC1 170802Z 29005KT 03/M00 A301 RMK A01 T00321002  RH  078%=      5-min Rain = 0
KDC1 170803Z 29005KT 03/M00 A301 RMK A01 T00331001  RH  078%=      5-min Rain = 0
KDC1 170804Z 29005KT 04/M00 A301 RMK A01 T00351001  RH  078%=      5-min Rain = 0
KDC1 170805Z 29005KT 04/00 A301 RMK A01 T00360000  RH  077%=      5-min Rain = 0
KDC1 170806Z 29005KT 04/00 A301 RMK A01 T00370000  RH  077%=      5-min Rain = 0
KDC1 170807Z 29004KT 04/00 A3011 RMK A01 T00380000  RH  077%=      5-min Rain = 0
KDC1 170808Z 28004KT 04/00 A301 RMK A01 T003800-0  RH  076%=      5-min Rain = 0
KDC1 170809Z 28004KT 04/00 A301 RMK A01 T00370000  RH  076%=      5-min Rain = 0
KDC1 170810Z 28004KT 04/00 A301 RMK A01 T00380001  RH  077%=      5-min Rain = 0
KDC1 170811Z 28005KT 04/00 A301 RMK A01 T00390001  RH  076%=      5-min Rain = 0
KDC1 170812Z 28005KT 04/00 A301 RMK A01 T00400000  RH  076%=      5-min Rain = 0
KDC1 170813Z 28005KT 04/00 A301 RMK A01 T003900-0  RH  076%=      5-min Rain = 0
KDC1 170814Z 27005KT 04/00 A301 RMK A01 T00380000  RH  076%=      5-min Rain = 0
KDC1 170815Z 28005KT 04/00 A301 RMK A01 T003800-0  RH  076%=      5-min Rain = 0
KDC1 170816Z 28005KT 04/00 A301 RMK A01 T003700-0  RH  076%=      5-min Rain = 0
KDC1 170817Z 27005KT 04/00 A301 RMK A01 T003700-0  RH  077%=      5-min Rain = 0
KDC1 170818Z 28005KT 04/M00 A301 RMK A01 T00361001  RH  077%=      5-min Rain = 0
KDC1 170819Z 28005KT 04/M00 A301 RMK A01 T00351002  RH  077%=      5-min Rain = 0
KDC1 170820Z 28005KT 03/M00 A301 RMK A01 T00331002  RH  077%=      5-min Rain = 0
KDC1 170821Z 28006KT 03/M00 A301 RMK A01 T00331002  RH  078%=      5-min Rain = 0
KDC1 170822Z 29006KT 03/M00 A301 RMK A01 T00331002  RH  078%=      5-min Rain = 0
KDC1 170823Z 29007KT 03/M00 A301 RMK A01 T00331003  RH  077%=      5-min Rain = 0
KDC1 170824Z 29007KT 03/M01 A3011 RMK A01 T00311006  RH  076%=      5-min Rain = 0
KDC1 170825Z 30007KT 03/M01 A3011 RMK A01 T00281009  RH  076%=      5-min Rain = 0
KDC1 170826Z 30007KT 03/M01 A3011 RMK A01 T00261010  RH  077%=      5-min Rain = 0
KDC1 170827Z 31007KT 03/M01 A3011 RMK A01 T00251010  RH  078%=      5-min Rain = 0
KDC1 170828Z 31006KT 02/M01 A3011 RMK A01 T00241010  RH  078%=      5-min Rain = 0
KDC1 170829Z 31005KT 02/M01 A3011 RMK A01 T00231009  RH  079%=      5-min Rain = 0
KDC1 170830Z 31003KT 02/M01 A3011 RMK A01 T00231009  RH  080%=      5-min Rain = 0
KDC1 170831Z 31002KT 02/M01 A3011 RMK A01 T00221009  RH  080%=      5-min Rain = 0
KDC1 170832Z 32002KT 02/M01 A3011 RMK A01 T00221008  RH  080%=      5-min Rain = 0
KDC1 170833Z 33001KT 02/M01 A3011 RMK A01 T00231008  RH  080%=      5-min Rain = 0
KDC1 170834Z 35002KT 02/M01 A3011 RMK A01 T00231007  RH  081%=      5-min Rain = 0
KDC1 170835Z 36002KT 02/M01 A3011 RMK A01 T00221007  RH  081%=      5-min Rain = 0
KDC1 170836Z 34003KT 02/M01 A3011 RMK A01 T00221007  RH  081%=      5-min Rain = 0
KDC1 170837Z 33004KT 02/M01 A3011 RMK A01 T00221007  RH  081%=      5-min Rain = 0
KDC1 170838Z 33005KT 02/M01 A3011 RMK A01 T00231005  RH  081%=      5-min Rain = 0
KDC1 170839Z 33005KT 02/M01 A3011 RMK A01 T00241005  RH  082%=      5-min Rain = 0
KDC1 170840Z 32005KT 03/M00 A3011 RMK A01 T00251004  RH  081%=      5-min Rain = 0
KDC1 170841Z 32005KT 02/M01 A3011 RMK A01 T00241005  RH  081%=      5-min Rain = 0
KDC1 170842Z 31005KT 02/M01 A3011 RMK A01 T00241006  RH  081%=      5-min Rain = 0
KDC1 170843Z 32005KT 02/M01 A3011 RMK A01 T00231007  RH  081%=      5-min Rain = 0
KDC1 170844Z 32004KT 02/M01 A3011 RMK A01 T00221008  RH  081%=      5-min Rain = 0
KDC1 170845Z 32003KT 02/M01 A3011 RMK A01 T00211010  RH  080%=      5-min Rain = 0
KDC1 170846Z 33003KT 02/M01 A3011 RMK A01 T00211010  RH  080%=      5-min Rain = 0
KDC1 170847Z 32004KT 02/M01 A3011 RMK A01 T00201011  RH  080%=      5-min Rain = 0
KDC1 170848Z 32004KT 02/M01 A3011 RMK A01 T00201010  RH  080%=      5-min Rain = 0
KDC1 170849Z 32003KT 02/M01 A3011 RMK A01 T00201010  RH  081%=      5-min Rain = 0
KDC1 170850Z 32003KT 02/M01 A3011 RMK A01 T00201009  RH  081%=      5-min Rain = 0
KDC1 170851Z 32004KT 02/M01 A3011 RMK A01 T00211007  RH  082%=      5-min Rain = 0
KDC1 170852Z 32004KT 02/M01 A3011 RMK A01 T00231005  RH  082%=      5-min Rain = 0
KDC1 170853Z 31004KT 03/M00 A3011 RMK A01 T00261003  RH  081%=      5-min Rain = 0
KDC1 170854Z 31004KT 03/M00 A3011 RMK A01 T00291002  RH  081%=      5-min Rain = 0
KDC1 170855Z 32004KT 03/M00 A3011 RMK A01 T00311002  RH  079%=      5-min Rain = 0
KDC1 170856Z 32005KT 03/M00 A3011 RMK A01 T00321003  RH  078%=      5-min Rain = 0
KDC1 170857Z 31005KT 03/M00 A3011 RMK A01 T00321004  RH  077%=      5-min Rain = 0
KDC1 170858Z 31005KT 03/M00 A3011 RMK A01 T00331004  RH  077%=      5-min Rain = 0
KDC1 170859Z 30005KT 03/M01 A3011 RMK A01 T00331005  RH  077%=      5-min Rain = 0
KDC1 170900Z 30005KT 03/M01 A3011 RMK A01 T00311006  RH  077%=      5-min Rain = 0
KDC1 170901Z 30004KT 03/M01 A3012 RMK A01 T00301007  RH  077%=      5-min Rain = 0
KDC1 170902Z 30004KT 03/M01 A3012 RMK A01 T00291007  RH  077%=      5-min Rain = 0
KDC1 170903Z 30003KT 03/M01 A3012 RMK A01 T00281006  RH  078%=      5-min Rain = 0
KDC1 170904Z 30003KT 03/M01 A3012 RMK A01 T00291005  RH  079%=      5-min Rain = 0
KDC1 170905Z 29003KT 03/M00 A3012 RMK A01 T00311003  RH  078%=      5-min Rain = 0
KDC1 170906Z 30003KT 03/M00 A3012 RMK A01 T00321002  RH  078%=      5-min Rain = 0
KDC1 170907Z 31004KT 03/M00 A3012 RMK A01 T00341003  RH  077%=      5-min Rain = 0
KDC1 170908Z 31004KT 03/M00 A3012 RMK A01 T00341003  RH  076%=      5-min Rain = 0
KDC1 170909Z 32005KT 04/M00 A3012 RMK A01 T00351003  RH  076%=      5-min Rain = 0
KDC1 170910Z 32004KT 03/M00 A3011 RMK A01 T00341004  RH  076%=      5-min Rain = 0
KDC1 170911Z 32004KT 03/M00 A3011 RMK A01 T00341004  RH  076%=      5-min Rain = 0
KDC1 170912Z 32003KT 03/M01 A3011 RMK A01 T00331006  RH  076%=      5-min Rain = 0
KDC1 170913Z 32003KT 03/M01 A3011 RMK A01 T00311007  RH  076%=      5-min Rain = 0
KDC1 170914Z 32003KT 03/M01 A3011 RMK A01 T00301007  RH  076%=      5-min Rain = 0
KDC1 170915Z 33003KT 03/M01 A3011 RMK A01 T00291008  RH  076%=      5-min Rain = 0
KDC1 170916Z 33003KT 03/M01 A3011 RMK A01 T00271010  RH  076%=      5-min Rain = 0
KDC1 170917Z 33004KT 03/M01 A3011 RMK A01 T00251012  RH  077%=      5-min Rain = 0
KDC1 170918Z 33004KT 02/M01 A3011 RMK A01 T00231012  RH  077%=      5-min Rain = 0
KDC1 170919Z 33004KT 02/M01 A3011 RMK A01 T00221012  RH  078%=      5-min Rain = 0
KDC1 170920Z 33004KT 02/M01 A3011 RMK A01 T00211010  RH  080%=      5-min Rain = 0
KDC1 170921Z 33004KT 02/M01 A3011 RMK A01 T00211009  RH  080%=      5-min Rain = 0
KDC1 170922Z 33004KT 02/M01 A3011 RMK A01 T00221008  RH  081%=      5-min Rain = 0
KDC1 170923Z 32004KT 02/M01 A3011 RMK A01 T00231007  RH  081%=      5-min Rain = 0
KDC1 170924Z 33004KT 02/M01 A3011 RMK A01 T00231006  RH  081%=      5-min Rain = 0
KDC1 170925Z 33004KT 02/M01 A3011 RMK A01 T00231006  RH  081%=      5-min Rain = 0
KDC1 170926Z 33004KT 02/M01 A3011 RMK A01 T00241005  RH  081%=      5-min Rain = 0
KDC1 170927Z 32004KT 02/M01 A3011 RMK A01 T00241006  RH  081%=      5-min Rain = 0
KDC1 170928Z 32005KT 02/M01 A3011 RMK A01 T00231007  RH  080%=      5-min Rain = 0
KDC1 170929Z 32005KT 02/M01 A3011 RMK A01 T00221009  RH  080%=      5-min Rain = 0
KDC1 170930Z 32005KT 02/M01 A3011 RMK A01 T00201010  RH  080%=      5-min Rain = 0
KDC1 170931Z 32005KT 02/M01 A3011 RMK A01 T00191011  RH  080%=      5-min Rain = 0
KDC1 170932Z 32005KT 02/M01 A3011 RMK A01 T00181013  RH  080%=      5-min Rain = 0
KDC1 170933Z 32005KT 02/M02 A3011 RMK A01 T00161015  RH  080%=      5-min Rain = 0
KDC1 170934Z 32005KT 02/M02 A3011 RMK A01 T00151016  RH  080%=      5-min Rain = 0
KDC1 170935Z 31005KT 01/M02 A3011 RMK A01 T00141015  RH  081%=      5-min Rain = 0
KDC1 170936Z 31005KT 01/M01 A3011 RMK A01 T00141014  RH  082%=      5-min Rain = 0
KDC1 170937Z 31006KT 01/M01 A3011 RMK A01 T00141014  RH  082%=      5-min Rain = 0
KDC1 170938Z 31006KT 01/M01 A3011 RMK A01 T00141014  RH  082%=      5-min Rain = 0
KDC1 170939Z 31006KT 01/M01 A3011 RMK A01 T00141014  RH  082%=      5-min Rain = 0
KDC1 170940Z 31006KT 01/M01 A3011 RMK A01 T00141013  RH  082%=      5-min Rain = 0
KDC1 170941Z 32006KT 02/M01 A3011 RMK A01 T00151013  RH  082%=      5-min Rain = 0
KDC1 170942Z 32006KT 02/M01 A3012 RMK A01 T00151012  RH  082%=      5-min Rain = 0
KDC1 170943Z 32006KT 02/M01 A3011 RMK A01 T00161013  RH  081%=      5-min Rain = 0
KDC1 170944Z 32006KT 02/M01 A3011 RMK A01 T00161013  RH  081%=      5-min Rain = 0
KDC1 170945Z 32006KT 02/M01 A3011 RMK A01 T00171011  RH  081%=      5-min Rain = 0
KDC1 170946Z 32006KT 02/M01 A3012 RMK A01 T00191010  RH  081%=      5-min Rain = 0
KDC1 170947Z 32007KT 02/M01 A3012 RMK A01 T00201010  RH  081%=      5-min Rain = 0
KDC1 170948Z 32006KT 02/M01 A3012 RMK A01 T00211011  RH  080%=      5-min Rain = 0
KDC1 170949Z 31006KT 02/M01 A3012 RMK A01 T00211011  RH  079%=      5-min Rain = 0
KDC1 170950Z 31005KT 02/M01 A3012 RMK A01 T00221010  RH  079%=      5-min Rain = 0
KDC1 170951Z 31004KT 02/M01 A3012 RMK A01 T00241010  RH  078%=      5-min Rain = 0
KDC1 170952Z 31004KT 02/M01 A3012 RMK A01 T00241010  RH  078%=      5-min Rain = 0
KDC1 170953Z 31005KT 02/M01 A3012 RMK A01 T00231012  RH  078%=      5-min Rain = 0
KDC1 170954Z 31005KT 02/M01 A3012 RMK A01 T00221012  RH  078%=      5-min Rain = 0
KDC1 170955Z 30004KT 02/M01 A3012 RMK A01 T00221011  RH  079%=      5-min Rain = 0
KDC1 170956Z 30004KT 02/M01 A3012 RMK A01 T00211011  RH  079%=      5-min Rain = 0
KDC1 170957Z 29004KT 02/M01 A3012 RMK A01 T00211010  RH  080%=      5-min Rain = 0
KDC1 170958Z 29004KT 02/M01 A3012 RMK A01 T00221008  RH  081%=      5-min Rain = 0
KDC1 170959Z 29004KT 02/M01 A3012 RMK A01 T00221008  RH  080%=      5-min Rain = 0
KDC1 171000Z 29004KT 02/M01 A3012 RMK A01 T00221008  RH  080%=      5-min Rain = 0
KDC1 171001Z 29004KT 02/M01 A3012 RMK A01 T00221009  RH  080%=      5-min Rain = 0
KDC1 171002Z 30004KT 02/M01 A3012 RMK A01 T00211009  RH  080%=      5-min Rain = 0
KDC1 171003Z 30004KT 02/M01 A3012 RMK A01 T00201010  RH  081%=      5-min Rain = 0
KDC1 171004Z 30004KT 02/M01 A3012 RMK A01 T00191009  RH  081%=      5-min Rain = 0
KDC1 171005Z 30004KT 02/M01 A3012 RMK A01 T00201007  RH  082%=      5-min Rain = 0
KDC1 171006Z 31004KT 02/M01 A3013 RMK A01 T00201005  RH  083%=      5-min Rain = 0
KDC1 171007Z 32004KT 02/M01 A3013 RMK A01 T00211005  RH  083%=      5-min Rain = 0
KDC1 171008Z 32004KT 02/M01 A3013 RMK A01 T00201008  RH  082%=      5-min Rain = 0
KDC1 171009Z 32005KT 02/M01 A3013 RMK A01 T00191009  RH  081%=      5-min Rain = 0
KDC1 171010Z 33005KT 02/M01 A3013 RMK A01 T00191009  RH  082%=      5-min Rain = 0
KDC1 171011Z 33005KT 02/M01 A3014 RMK A01 T00181009  RH  082%=      5-min Rain = 0
KDC1 171012Z 33006KT 02/M01 A3014 RMK A01 T00181009  RH  082%=      5-min Rain = 0
KDC1 171013Z 33007KT 02/M01 A3014 RMK A01 T00181009  RH  082%=      5-min Rain = 0
KDC1 171014Z 32006KT 02/M01 A3014 RMK A01 T00181009  RH  082%=      5-min Rain = 0
KDC1 171015Z 32006KT 02/M01 A3014 RMK A01 T00191008  RH  082%=      5-min Rain = 0
KDC1 171016Z 32007KT 02/M01 A3014 RMK A01 T00191009  RH  082%=      5-min Rain = 0
KDC1 171017Z 33006KT 02/M01 A3014 RMK A01 T00191011  RH  081%=      5-min Rain = 0
KDC1 171018Z 33007KT 02/M01 A3014 RMK A01 T00171013  RH  081%=      5-min Rain = 0
KDC1 171019Z 33006KT 02/M02 A3014 RMK A01 T00151015  RH  081%=      5-min Rain = 0
KDC1 171020Z 32005KT 01/M02 A3014 RMK A01 T00141015  RH  081%=      5-min Rain = 0
KDC1 171021Z 31004KT 01/M02 A3014 RMK A01 T00141015  RH  081%=      5-min Rain = 0
KDC1 171022Z 31004KT 01/M01 A3014 RMK A01 T00141012  RH  083%=      5-min Rain = 0
KDC1 171023Z 32003KT 02/M01 A3014 RMK A01 T00181008  RH  083%=      5-min Rain = 0
KDC1 171024Z 32003KT 02/M01 A3014 RMK A01 T00201006  RH  082%=      5-min Rain = 0
KDC1 171025Z 32004KT 02/M01 A3014 RMK A01 T00231006  RH  081%=      5-min Rain = 0
KDC1 171026Z 32003KT 03/M01 A3014 RMK A01 T00251007  RH  079%=      5-min Rain = 0
KDC1 171027Z 32002KT 03/M01 A3014 RMK A01 T00281006  RH  079%=      5-min Rain = 0
KDC1 171028Z 30002KT 03/M01 A3014 RMK A01 T00291007  RH  077%=      5-min Rain = 0
KDC1 171029Z 29002KT 03/M01 A3014 RMK A01 T00301007  RH  077%=      5-min Rain = 0
KDC1 171030Z 28002KT 03/M01 A3014 RMK A01 T00321006  RH  076%=      5-min Rain = 0
KDC1 171031Z 28002KT 03/M01 A3014 RMK A01 T00331006  RH  076%=      5-min Rain = 0
KDC1 171032Z 28002KT 03/M01 A3014 RMK A01 T00341006  RH  075%=      5-min Rain = 0
KDC1 171033Z 29003KT 03/M01 A3014 RMK A01 T00341007  RH  075%=      5-min Rain = 0
KDC1 171034Z 29003KT 03/M01 A3015 RMK A01 T00321006  RH  076%=      5-min Rain = 0
KDC1 171035Z 29002KT 03/M01 A3015 RMK A01 T00301008  RH  076%=      5-min Rain = 0
KDC1 171036Z 29002KT 03/M01 A3014 RMK A01 T00291008  RH  077%=      5-min Rain = 0
KDC1 171037Z 30003KT 03/M01 A3014 RMK A01 T00281006  RH  078%=      5-min Rain = 0
KDC1 171038Z 30003KT 03/M01 A3015 RMK A01 T00271005  RH  079%=      5-min Rain = 0
KDC1 171039Z 30003KT 03/M01 A3015 RMK A01 T00281005  RH  079%=      5-min Rain = 0
KDC1 171040Z 30004KT 03/M00 A3015 RMK A01 T00301004  RH  079%=      5-min Rain = 0
KDC1 171041Z 31004KT 03/M00 A3015 RMK A01 T00311004  RH  078%=      5-min Rain = 0
KDC1 171042Z 31005KT 03/M01 A3015 RMK A01 T00321005  RH  076%=      5-min Rain = 0
KDC1 171043Z 30006KT 03/M01 A3014 RMK A01 T00321006  RH  076%=      5-min Rain = 0
KDC1 171044Z 29006KT 03/M01 A3014 RMK A01 T00321007  RH  076%=      5-min Rain = 0
KDC1 171045Z 28007KT 03/M01 A3014 RMK A01 T00301008  RH  076%=      5-min Rain = 0
KDC1 171046Z 28008KT 03/M01 A3014 RMK A01 T00291009  RH  076%=      5-min Rain = 0
KDC1 171047Z 28009KT 03/M01 A3013 RMK A01 T00291008  RH  077%=      5-min Rain = 0
KDC1 171048Z 27009KT 03/M01 A3013 RMK A01 T00281009  RH  077%=      5-min Rain = 0
KDC1 171049Z 27010KT 03/M01 A3013 RMK A01 T00271008  RH  077%=      5-min Rain = 0
KDC1 171050Z 27010KT 03/M01 A3012 RMK A01 T00281006  RH  078%=      5-min Rain = 0
KDC1 171051Z 26010KT 03/M00 A3012 RMK A01 T00311004  RH  078%=      5-min Rain = 0
KDC1 171052Z 27009KT 03/M01 A3012 RMK A01 T00321006  RH  077%=      5-min Rain = 0
KDC1 171053Z 27009KT 03/M01 A3013 RMK A01 T00301008  RH  076%=      5-min Rain = 0
KDC1 171054Z 28009KT 03/M01 A3013 RMK A01 T00291007  RH  077%=      5-min Rain = 0
KDC1 171055Z 28008KT 03/M01 A3013 RMK A01 T00301007  RH  077%=      5-min Rain = 0
KDC1 171056Z 28009KT 03/M01 A3012 RMK A01 T00301006  RH  077%=      5-min Rain = 0
KDC1 171057Z 28009KT 03/M01 A3012 RMK A01 T00311005  RH  077%=      5-min Rain = 0
KDC1 171058Z 28010KT 03/M01 A3012 RMK A01 T00321005  RH  077%=      5-min Rain = 0
KDC1 171059Z 28010KT 03/M00 A3012 RMK A01 T00321004  RH  077%=      5-min Rain = 0
KDC1 171100Z 28010KT 03/M00 A3012 RMK A01 T00321004  RH  077%=      5-min Rain = 0
KDC1 171101Z 28009KT 03/M00 A3012 RMK A01 T00321004  RH  078%=      5-min Rain = 0
KDC1 171102Z 29009KT 03/M00 A3013 RMK A01 T00321003  RH  077%=      5-min Rain = 0
KDC1 171103Z 29008KT 03/M00 A3013 RMK A01 T00331004  RH  077%=      5-min Rain = 0
KDC1 171104Z 29008KT 03/M00 A3013 RMK A01 T00331004  RH  076%=      5-min Rain = 0
KDC1 171105Z 29008KT 03/M01 A3013 RMK A01 T00331005  RH  076%=      5-min Rain = 0
KDC1 171106Z 29008KT 03/M00 A3013 RMK A01 T00341004  RH  076%=      5-min Rain = 0
KDC1 171107Z 29008KT 03/M00 A3013 RMK A01 T00331004  RH  076%=      5-min Rain = 0
KDC1 171108Z 29008KT 03/M01 A3013 RMK A01 T00331005  RH  076%=      5-min Rain = 0
KDC1 171109Z 29008KT 03/M01 A3013 RMK A01 T00321005  RH  077%=      5-min Rain = 0
KDC1 171110Z 29009KT 03/M01 A3013 RMK A01 T00321005  RH  077%=      5-min Rain = 0
KDC1 171111Z 29009KT 03/M01 A3013 RMK A01 T00321005  RH  077%=      5-min Rain = 0
KDC1 171112Z 29008KT 03/M01 A3013 RMK A01 T00321005  RH  077%=      5-min Rain = 0
KDC1 171113Z 28008KT 03/M01 A3013 RMK A01 T00331005  RH  077%=      5-min Rain = 0
KDC1 171114Z 29008KT 03/M00 A3013 RMK A01 T00331004  RH  077%=      5-min Rain = 0
KDC1 171115Z 29008KT 03/M00 A3013 RMK A01 T00331004  RH  077%=      5-min Rain = 0
KDC1 171116Z 28008KT 03/M00 A3013 RMK A01 T00331004  RH  077%=      5-min Rain = 0
KDC1 171117Z 27008KT 03/M00 A3012 RMK A01 T00331004  RH  077%=      5-min Rain = 0
KDC1 171118Z 27008KT 03/M01 A3012 RMK A01 T00321005  RH  077%=      5-min Rain = 0
KDC1 171119Z 27008KT 03/M00 A3012 RMK A01 T00321004  RH  077%=      5-min Rain = 0
KDC1 171120Z 28007KT 03/M00 A3013 RMK A01 T00321004  RH  077%=      5-min Rain = 0
KDC1 171121Z 30006KT 03/M00 A3013 RMK A01 T00321004  RH  077%=      5-min Rain = 0
KDC1 171122Z 31005KT 03/M01 A3013 RMK A01 T00311005  RH  077%=      5-min Rain = 0
KDC1 171123Z 30005KT 03/M01 A3013 RMK A01 T00311005  RH  077%=      5-min Rain = 0
KDC1 171124Z 30005KT 03/M01 A3013 RMK A01 T00311005  RH  078%=      5-min Rain = 0
KDC1 171125Z 30007KT 03/M01 A3013 RMK A01 T00311005  RH  078%=      5-min Rain = 0
KDC1 171126Z 30007KT 03/M01 A3013 RMK A01 T00311005  RH  078%=      5-min Rain = 0
KDC1 171127Z 32006KT 03/M01 A3014 RMK A01 T00301005  RH  077%=      5-min Rain = 0
KDC1 171128Z 04008KT 03/M01 A3014 RMK A01 T00301005  RH  078%=      5-min Rain = 0
KDC1 171129Z 02009KT 03/M01 A3014 RMK A01 T00301005  RH  078%=      5-min Rain = 0
KDC1 171130Z 01006KT 03/M01 A3014 RMK A01 T00291007  RH  077%=      5-min Rain = 0
KDC1 171131Z 33004KT 03/M01 A3014 RMK A01 T00281008  RH  077%=      5-min Rain = 0
KDC1 171132Z 33003KT 03/M01 A3014 RMK A01 T00281008  RH  077%=      5-min Rain = 0
KDC1 171133Z 01003KT 03/M01 A3014 RMK A01 T00281008  RH  077%=      5-min Rain = 0
KDC1 171134Z 03002KT 03/M01 A3014 RMK A01 T00281008  RH  077%=      5-min Rain = 0
KDC1 171135Z 06003KT 03/M01 A3014 RMK A01 T00281009  RH  077%=      5-min Rain = 0
KDC1 171136Z 05003KT 03/M01 A3014 RMK A01 T00281010  RH  076%=      5-min Rain = 0
KDC1 171137Z 04003KT 03/M01 A3015 RMK A01 T00271012  RH  076%=      5-min Rain = 0
KDC1 171138Z 05004KT 03/M01 A3015 RMK A01 T00261012  RH  076%=      5-min Rain = 0
KDC1 171139Z 06005KT 03/M01 A3015 RMK A01 T00251014  RH  076%=      5-min Rain = 0
KDC1 171140Z 04003KT 02/M02 A3015 RMK A01 T00231015  RH  076%=      5-min Rain = 0
KDC1 171141Z 33002KT 02/M02 A3014 RMK A01 T00211015  RH  077%=      5-min Rain = 0
KDC1 171142Z 31003KT 02/M02 A3014 RMK A01 T00201015  RH  078%=      5-min Rain = 0
KDC1 171143Z 34002KT 02/M01 A3014 RMK A01 T00201014  RH  078%=      5-min Rain = 0
KDC1 171144Z 03003KT 02/M01 A3014 RMK A01 T00211014  RH  078%=      5-min Rain = 0
KDC1 171145Z 04004KT 02/M01 A3015 RMK A01 T00211014  RH  078%=      5-min Rain = 0
KDC1 171146Z 04004KT 02/M02 A3015 RMK A01 T00201015  RH  077%=      5-min Rain = 0
KDC1 171147Z 04007KT 02/M02 A3016 RMK A01 T00181016  RH  078%=      5-min Rain = 0
KDC1 171148Z 04010KT 02/M02 A3017 RMK A01 T00171017  RH  078%=      5-min Rain = 0
KDC1 171149Z 05009KT 02/M02 A3017 RMK A01 T00171015  RH  080%=      5-min Rain = 0
KDC1 171150Z 06008KT 02/M01 A3017 RMK A01 T00201013  RH  079%=      5-min Rain = 0
KDC1 171151Z 07006KT 02/M01 A3016 RMK A01 T00221013  RH  078%=      5-min Rain = 0
KDC1 171152Z 07007KT 02/M02 A3017 RMK A01 T00231015  RH  076%=      5-min Rain = 0
KDC1 171153Z 07007KT 02/M02 A3017 RMK A01 T00221016  RH  076%=      5-min Rain = 0
KDC1 171154Z 07006KT 02/M02 A3017 RMK A01 T00211017  RH  076%=      5-min Rain = 0
KDC1 171155Z 07005KT 02/M02 A3017 RMK A01 T00191018  RH  076%=      5-min Rain = 0
KDC1 171156Z 07004KT 02/M02 A3017 RMK A01 T00171019  RH  077%=      5-min Rain = 0
KDC1 171157Z 08003KT 02/M02 A3017 RMK A01 T00161019  RH  077%=      5-min Rain = 0
KDC1 171158Z 12002KT 02/M02 A3017 RMK A01 T00161019  RH  078%=      5-min Rain = 0
KDC1 171159Z 12003KT 02/M02 A3017 RMK A01 T00151019  RH  078%=      5-min Rain = 0
KDC1 171200Z 14002KT 01/M02 A3017 RMK A01 T00141019  RH  079%=      5-min Rain = 0
KDC1 171201Z 16003KT 01/M02 A3017 RMK A01 T00131019  RH  079%=      5-min Rain = 0
KDC1 171202Z 15004KT 01/M02 A3017 RMK A01 T00131018  RH  080%=      5-min Rain = 0
KDC1 171203Z 18003KT 01/M02 A3017 RMK A01 T00121018  RH  080%=      5-min Rain = 0
KDC1 171204Z 17003KT 01/M02 A3017 RMK A01 T00121017  RH  081%=      5-min Rain = 0
KDC1 171205Z 15005KT 01/M02 A3017 RMK A01 T00121017  RH  081%=      5-min Rain = 0
KDC1 171206Z 17005KT 01/M02 A3017 RMK A01 T00101020  RH  081%=      5-min Rain = 0
KDC1 171207Z 17004KT 01/M02 A3017 RMK A01 T00091019  RH  081%=      5-min Rain = 0
KDC1 171208Z 18003KT 01/M02 A3017 RMK A01 T00101018  RH  082%=      5-min Rain = 0
KDC1 171209Z 16004KT 01/M02 A3017 RMK A01 T00111017  RH  082%=      5-min Rain = 0
KDC1 171210Z 14004KT 01/M02 A3017 RMK A01 T00121017  RH  081%=      5-min Rain = 0
KDC1 171211Z 17004KT 01/M02 A3017 RMK A01 T00111018  RH  081%=      5-min Rain = 0
KDC1 171212Z 19004KT 01/M02 A3017 RMK A01 T00111018  RH  081%=      5-min Rain = 0
KDC1 171213Z 19003KT 01/M02 A3017 RMK A01 T00121017  RH  081%=      5-min Rain = 0
KDC1 171214Z 22001KT 01/M02 A3018 RMK A01 T00121017  RH  081%=      5-min Rain = 0
KDC1 171215Z 22002KT 01/M02 A3018 RMK A01 T00131017  RH  081%=      5-min Rain = 0
KDC1 171216Z 23003KT 01/M02 A3018 RMK A01 T00141016  RH  080%=      5-min Rain = 0
KDC1 171217Z 23004KT 01/M02 A3018 RMK A01 T00141016  RH  080%=      5-min Rain = 0
KDC1 171218Z 23004KT 02/M02 A3018 RMK A01 T00151016  RH  080%=      5-min Rain = 0
KDC1 171219Z 22005KT 02/M02 A3018 RMK A01 T00151016  RH  080%=      5-min Rain = 0
KDC1 171220Z 23006KT 02/M02 A3018 RMK A01 T00151016  RH  080%=      5-min Rain = 0
KDC1 171221Z 23006KT 02/M02 A3019 RMK A01 T00161015  RH  080%=      5-min Rain = 0
KDC1 171222Z 23005KT 02/M02 A3019 RMK A01 T00161015  RH  080%=      5-min Rain = 0
KDC1 171223Z 23005KT 02/M02 A3019 RMK A01 T00161015  RH  080%=      5-min Rain = 0
KDC1 171224Z 24006KT 02/M02 A3019 RMK A01 T00151015  RH  081%=      5-min Rain = 0
KDC1 171225Z 25006KT 01/M02 A3019 RMK A01 T00141015  RH  081%=      5-min Rain = 0
KDC1 171226Z 24007KT 01/M02 A3019 RMK A01 T00121015  RH  082%=      5-min Rain = 0
KDC1 171227Z 25006KT 01/M02 A3019 RMK A01 T00101016  RH  083%=      5-min Rain = 0
KDC1 171228Z 25007KT 01/M02 A3019 RMK A01 T00091015  RH  084%=      5-min Rain = 0
KDC1 171229Z 25006KT 01/M01 A3019 RMK A01 T00101014  RH  084%=      5-min Rain = 0
KDC1 171230Z 25006KT 01/M01 A3019 RMK A01 T00111013  RH  084%=      5-min Rain = 0
KDC1 171231Z 25007KT 01/M01 A3019 RMK A01 T00121013  RH  083%=      5-min Rain = 0
KDC1 171232Z 26007KT 01/M01 A3019 RMK A01 T00121014  RH  083%=      5-min Rain = 0
KDC1 171233Z 26008KT 01/M01 A3019 RMK A01 T00111014  RH  083%=      5-min Rain = 0
KDC1 171234Z 26008KT 01/M01 A3019 RMK A01 T00111014  RH  084%=      5-min Rain = 0
KDC1 171235Z 26008KT 01/M02 A3019 RMK A01 T00101015  RH  084%=      5-min Rain = 0
KDC1 171236Z 27007KT 01/M02 A3019 RMK A01 T00101015  RH  084%=      5-min Rain = 0
KDC1 171237Z 27008KT 01/M01 A3019 RMK A01 T00101014  RH  084%=      5-min Rain = 0
KDC1 171238Z 27009KT 01/M01 A3019 RMK A01 T00091014  RH  084%=      5-min Rain = 0
KDC1 171239Z 27008KT 01/M01 A3019 RMK A01 T00091014  RH  084%=      5-min Rain = 0
KDC1 171240Z 27008KT 01/M01 A3019 RMK A01 T00091014  RH  084%=      5-min Rain = 0
KDC1 171241Z 27008KT 01/M01 A3019 RMK A01 T00091014  RH  084%=      5-min Rain = 0
KDC1 171242Z 27008KT 01/M01 A3019 RMK A01 T00091014  RH  085%=      5-min Rain = 0
KDC1 171243Z 28008KT 01/M01 A3019 RMK A01 T00101014  RH  084%=      5-min Rain = 0
KDC1 171244Z 27008KT 01/M01 A3019 RMK A01 T00101013  RH  084%=      5-min Rain = 0
KDC1 171245Z 27008KT 01/M01 A3019 RMK A01 T00111013  RH  084%=      5-min Rain = 0
KDC1 171246Z 27008KT 01/M01 A3019 RMK A01 T00111013  RH  084%=      5-min Rain = 0
KDC1 171247Z 27007KT 01/M01 A3019 RMK A01 T00111013  RH  084%=      5-min Rain = 0
KDC1 171248Z 27008KT 01/M01 A3019 RMK A01 T00101013  RH  084%=      5-min Rain = 0
KDC1 171249Z 27008KT 01/M01 A3019 RMK A01 T00111013  RH  084%=      5-min Rain = 0
KDC1 171250Z 27008KT 01/M01 A302 RMK A01 T00111013  RH  084%=      5-min Rain = 0
KDC1 171251Z 28008KT 01/M01 A302 RMK A01 T00111013  RH  084%=      5-min Rain = 0
KDC1 171252Z 28009KT 01/M01 A3019 RMK A01 T00111013  RH  084%=      5-min Rain = 0
KDC1 171253Z 28009KT 01/M01 A3019 RMK A01 T00121012  RH  084%=      5-min Rain = 0
KDC1 171254Z 28009KT 01/M01 A302 RMK A01 T00111013  RH  084%=      5-min Rain = 0
KDC1 171255Z 28009KT 01/M01 A302 RMK A01 T00111013  RH  084%=      5-min Rain = 0
KDC1 171256Z 28009KT 01/M01 A302 RMK A01 T00121013  RH  084%=      5-min Rain = 0
KDC1 171257Z 28009KT 01/M01 A302 RMK A01 T00121013  RH  084%=      5-min Rain = 0
KDC1 171258Z 28010KT 01/M01 A302 RMK A01 T00121012  RH  084%=      5-min Rain = 0
KDC1 171259Z 28010KT 01/M01 A302 RMK A01 T00131012  RH  083%=      5-min Rain = 0
KDC1 171300Z 28010KT 01/M01 A302 RMK A01 T00141011  RH  083%=      5-min Rain = 0
KDC1 171301Z 28010KT 01/M01 A302 RMK A01 T00141012  RH  083%=      5-min Rain = 0
KDC1 171302Z 28010KT 02/M01 A302 RMK A01 T00151012  RH  082%=      5-min Rain = 0
KDC1 171303Z 28010KT 02/M01 A302 RMK A01 T00151012  RH  082%=      5-min Rain = 0
KDC1 171304Z 28010KT 02/M01 A302 RMK A01 T00151012  RH  082%=      5-min Rain = 0
KDC1 171305Z 28010KT 02/M01 A302 RMK A01 T00151012  RH  082%=      5-min Rain = 0
KDC1 171306Z 28010KT 02/M01 A302 RMK A01 T00151012  RH  082%=      5-min Rain = 0
KDC1 171307Z 29010KT 02/M01 A302 RMK A01 T00161012  RH  082%=      5-min Rain = 0
KDC1 171308Z 29010KT 02/M01 A302 RMK A01 T00171011  RH  082%=      5-min Rain = 0
KDC1 171309Z 29009KT 02/M01 A302 RMK A01 T00171011  RH  081%=      5-min Rain = 0
KDC1 171310Z 29009KT 02/M01 A302 RMK A01 T00191011  RH  081%=      5-min Rain = 0
KDC1 171311Z 29009KT 02/M01 A302 RMK A01 T00201011  RH  080%=      5-min Rain = 0
KDC1 171312Z 29009KT 02/M01 A302 RMK A01 T00211010  RH  080%=      5-min Rain = 0
KDC1 171313Z 29009KT 02/M01 A302 RMK A01 T00221010  RH  079%=      5-min Rain = 0
KDC1 171314Z 30009KT 02/M01 A302 RMK A01 T00221011  RH  079%=      5-min Rain = 0
KDC1 171315Z 30009KT 02/M01 A302 RMK A01 T00231011  RH  078%=      5-min Rain = 0
KDC1 171316Z 30009KT 02/M01 A302 RMK A01 T00241011  RH  078%=      5-min Rain = 0
KDC1 171317Z 30009KT 03/M01 A302 RMK A01 T00251010  RH  078%=      5-min Rain = 0
KDC1 171318Z 31009KT 03/M01 A302 RMK A01 T00261010  RH  077%=      5-min Rain = 0
KDC1 171319Z 31009KT 03/M01 A302 RMK A01 T00261010  RH  077%=      5-min Rain = 0
KDC1 171320Z 31011KT 03/M01 A302 RMK A01 T00261010  RH  077%=      5-min Rain = 0
KDC1 171321Z 31011KT 03/M01 A302 RMK A01 T00261010  RH  078%=      5-min Rain = 0
KDC1 171322Z 31010KT 03/M01 A302 RMK A01 T00261009  RH  078%=      5-min Rain = 0
KDC1 171323Z 31009KT 03/M01 A302 RMK A01 T00251010  RH  078%=      5-min Rain = 0
KDC1 171324Z 32009KT 02/M01 A302 RMK A01 T00241010  RH  078%=      5-min Rain = 0
KDC1 171325Z 31009KT 02/M01 A302 RMK A01 T00241010  RH  078%=      5-min Rain = 0
KDC1 171326Z 32009KT 02/M01 A302 RMK A01 T00241011  RH  078%=      5-min Rain = 0
KDC1 171327Z 32008KT 02/M01 A302 RMK A01 T00241012  RH  077%=      5-min Rain = 0
KDC1 171328Z 32007KT 02/M01 A302 RMK A01 T00241012  RH  077%=      5-min Rain = 0
KDC1 171329Z 31008KT 03/M01 A302 RMK A01 T00251012  RH  076%=      5-min Rain = 0
KDC1 171330Z 31007KT 03/M01 A302 RMK A01 T00261013  RH  076%=      5-min Rain = 0
KDC1 171331Z 31007KT 03/M01 A3021 RMK A01 T00261013  RH  075%=      5-min Rain = 0
KDC1 171332Z 32007KT 03/M01 A3021 RMK A01 T00261013  RH  075%=      5-min Rain = 0
KDC1 171333Z 32008KT 03/M01 A3021 RMK A01 T00261013  RH  075%=      5-min Rain = 0
KDC1 171334Z 33008KT 03/M01 A3021 RMK A01 T00251014  RH  076%=      5-min Rain = 0
KDC1 171335Z 33008KT 03/M01 A3021 RMK A01 T00251014  RH  075%=      5-min Rain = 0
KDC1 171336Z 33008KT 03/M01 A3021 RMK A01 T00281013  RH  074%=      5-min Rain = 0
KDC1 171337Z 32008KT 03/M01 A3021 RMK A01 T00311013  RH  073%=      5-min Rain = 0
KDC1 171338Z 33008KT 03/M01 A3021 RMK A01 T00311014  RH  072%=      5-min Rain = 0
KDC1 171339Z 32008KT 03/M01 A3021 RMK A01 T00311014  RH  072%=      5-min Rain = 0
KDC1 171340Z 32008KT 03/M02 A3021 RMK A01 T00301015  RH  073%=      5-min Rain = 0
KDC1 171341Z 32009KT 03/M01 A3021 RMK A01 T00291014  RH  073%=      5-min Rain = 0
KDC1 171342Z 33008KT 03/M01 A3021 RMK A01 T00281014  RH  074%=      5-min Rain = 0
KDC1 171343Z 33008KT 03/M01 A3022 RMK A01 T00281014  RH  074%=      5-min Rain = 0
KDC1 171344Z 33008KT 03/M01 A3022 RMK A01 T00281013  RH  074%=      5-min Rain = 0
KDC1 171345Z 32008KT 03/M01 A3022 RMK A01 T00281013  RH  074%=      5-min Rain = 0
KDC1 171346Z 32007KT 03/M01 A3022 RMK A01 T00281013  RH  074%=      5-min Rain = 0
KDC1 171347Z 32007KT 03/M01 A3022 RMK A01 T00271013  RH  075%=      5-min Rain = 0
KDC1 171348Z 32007KT 03/M01 A3022 RMK A01 T00261012  RH  076%=      5-min Rain = 0
KDC1 171349Z 32007KT 03/M01 A3022 RMK A01 T00251012  RH  077%=      5-min Rain = 0
KDC1 171350Z 32007KT 03/M01 A3022 RMK A01 T00251011  RH  077%=      5-min Rain = 0
KDC1 171351Z 33007KT 02/M01 A3022 RMK A01 T00241011  RH  077%=      5-min Rain = 0
KDC1 171352Z 33008KT 02/M01 A3022 RMK A01 T00241011  RH  078%=      5-min Rain = 0
KDC1 171353Z 34008KT 03/M01 A3022 RMK A01 T00251010  RH  078%=      5-min Rain = 0
KDC1 171354Z 34009KT 03/M01 A3022 RMK A01 T00251010  RH  078%=      5-min Rain = 0
KDC1 171355Z 34009KT 03/M01 A3022 RMK A01 T00261010  RH  077%=      5-min Rain = 0
KDC1 171356Z 35010KT 03/M01 A3022 RMK A01 T00281010  RH  076%=      5-min Rain = 0
KDC1 171357Z 35009KT 03/M01 A3022 RMK A01 T00311010  RH  074%=      5-min Rain = 0
KDC1 171358Z 36009KT 04/M01 A3022 RMK A01 T00361010  RH  072%=      5-min Rain = 0
KDC1 171359Z 36008KT 04/M01 A3022 RMK A01 T00411011  RH  069%=      5-min Rain = 0
KDC1 171400Z 36008KT 04/M01 A3022 RMK A01 T00441012  RH  067%=      5-min Rain = 0
KDC1 171401Z 36007KT 05/M01 A3022 RMK A01 T00481012  RH  065%=      5-min Rain = 0
KDC1 171402Z 36007KT 05/M01 A3022 RMK A01 T00521012  RH  063%=      5-min Rain = 0
KDC1 171403Z 36006KT 05/M01 A3022 RMK A01 T00541012  RH  062%=      5-min Rain = 0
KDC1 171404Z 35006KT 06/M01 A3023 RMK A01 T00561012  RH  062%=      5-min Rain = 0
KDC1 171405Z 35005KT 06/M01 A3023 RMK A01 T00561012  RH  062%=      5-min Rain = 0
KDC1 171406Z 34005KT 06/M01 A3023 RMK A01 T00561011  RH  062%=      5-min Rain = 0
KDC1 171407Z 34006KT 06/M01 A3023 RMK A01 T00551010  RH  063%=      5-min Rain = 0
KDC1 171408Z 35006KT 06/M01 A3023 RMK A01 T00551011  RH  063%=      5-min Rain = 0
KDC1 171409Z 35006KT 06/M01 A3023 RMK A01 T00551011  RH  062%=      5-min Rain = 0
KDC1 171410Z 35005KT 06/M01 A3023 RMK A01 T00571011  RH  062%=      5-min Rain = 0
KDC1 171411Z 35006KT 06/M01 A3023 RMK A01 T00581012  RH  061%=      5-min Rain = 0
KDC1 171412Z 35006KT 06/M01 A3023 RMK A01 T00611011  RH  060%=      5-min Rain = 0
KDC1 171413Z 35006KT 06/M01 A3023 RMK A01 T00641011  RH  059%=      5-min Rain = 0
KDC1 171414Z 36005KT 07/M01 A3023 RMK A01 T00671011  RH  058%=      5-min Rain = 0
KDC1 171415Z 35007KT 07/M01 A3024 RMK A01 T00681011  RH  057%=      5-min Rain = 0
KDC1 171416Z 36007KT 07/M01 A3024 RMK A01 T00711010  RH  057%=      5-min Rain = 0
KDC1 171417Z 36007KT 07/M01 A3024 RMK A01 T00741008  RH  056%=      5-min Rain = 0
KDC1 171418Z 35007KT 08/M01 A3024 RMK A01 T00761007  RH  056%=      5-min Rain = 0
KDC1 171419Z 34008KT 08/M01 A3024 RMK A01 T00781006  RH  056%=      5-min Rain = 0
KDC1 171420Z 35007KT 08/M01 A3024 RMK A01 T00791005  RH  055%=      5-min Rain = 0
KDC1 171421Z 35007KT 08/M01 A3024 RMK A01 T00791005  RH  055%=      5-min Rain = 0
KDC1 171422Z 34008KT 08/M00 A3024 RMK A01 T00781004  RH  056%=      5-min Rain = 0
KDC1 171423Z 35008KT 08/M00 A3024 RMK A01 T00771004  RH  056%=      5-min Rain = 0
KDC1 171424Z 35008KT 08/M00 A3024 RMK A01 T00761003  RH  057%=      5-min Rain = 0
KDC1 171425Z 36007KT 08/M00 A3024 RMK A01 T00761003  RH  057%=      5-min Rain = 0
KDC1 171426Z 00007KT 08/M00 A3024 RMK A01 T00761003  RH  058%=      5-min Rain = 0
KDC1 171427Z 01006KT 08/M00 A3024 RMK A01 T00761001  RH  058%=      5-min Rain = 0
KDC1 171428Z 02006KT 08/00 A3024 RMK A01 T00780000  RH  058%=      5-min Rain = 0
KDC1 171429Z 01007KT 08/00 A3024 RMK A01 T00810002  RH  058%=      5-min Rain = 0
KDC1 171430Z 01008KT 09/00 A3024 RMK A01 T00850003  RH  056%=      5-min Rain = 0
KDC1 171431Z 01006KT 09/00 A3024 RMK A01 T00910003  RH  054%=      5-min Rain = 0
KDC1 171432Z 01006KT 09/00 A3024 RMK A01 T00930004  RH  054%=      5-min Rain = 0
KDC1 171433Z 01006KT 09/00 A3024 RMK A01 T00930004  RH  053%=      5-min Rain = 0
KDC1 171434Z 01006KT 09/00 A3024 RMK A01 T00940004  RH  053%=      5-min Rain = 0
KDC1 171435Z 01006KT 09/00 A3024 RMK A01 T00940004  RH  053%=      5-min Rain = 0
KDC1 171436Z 00006KT 10/00 A3024 RMK A01 T00950004  RH  053%=      5-min Rain = 0
KDC1 171437Z 00005KT 10/01 A3024 RMK A01 T00960005  RH  053%=      5-min Rain = 0
KDC1 171438Z 00006KT 10/01 A3024 RMK A01 T00950006  RH  054%=      5-min Rain = 0
KDC1 171439Z 00007KT 10/01 A3024 RMK A01 T00950006  RH  054%=      5-min Rain = 0
KDC1 171440Z 01008KT 10/01 A3024 RMK A01 T00960006  RH  053%=      5-min Rain = 0
KDC1 171441Z 01008KT 10/00 A3024 RMK A01 T00970004  RH  052%=      5-min Rain = 0
KDC1 171442Z 01008KT 10/00 A3024 RMK A01 T01000003  RH  051%=      5-min Rain = 0
KDC1 171443Z 01009KT 10/00 A3024 RMK A01 T01020001  RH  050%=      5-min Rain = 0
KDC1 171444Z 01007KT 10/00 A3024 RMK A01 T01040000  RH  049%=      5-min Rain = 0
KDC1 171445Z 01008KT 11/00 A3024 RMK A01 T01050000  RH  048%=      5-min Rain = 0
KDC1 171446Z 01006KT 11/00 A3024 RMK A01 T01050000  RH  048%=      5-min Rain = 0
KDC1 171447Z 01005KT 11/00 A3025 RMK A01 T01060002  RH  048%=      5-min Rain = 0
KDC1 171448Z 01007KT 11/00 A3025 RMK A01 T01060002  RH  049%=      5-min Rain = 0
KDC1 171449Z 01007KT 11/00 A3025 RMK A01 T01060002  RH  049%=      5-min Rain = 0
KDC1 171450Z 01006KT 11/00 A3025 RMK A01 T01060002  RH  048%=      5-min Rain = 0
KDC1 171451Z 01005KT 11/00 A3025 RMK A01 T01070003  RH  049%=      5-min Rain = 0
KDC1 171452Z 01005KT 11/01 A3025 RMK A01 T01070005  RH  049%=      5-min Rain = 0
KDC1 171453Z 01006KT 11/01 A3025 RMK A01 T01070005  RH  049%=      5-min Rain = 0
KDC1 171454Z 01007KT 11/00 A3025 RMK A01 T01080004  RH  049%=      5-min Rain = 0
KDC1 171455Z 01006KT 11/00 A3025 RMK A01 T01090004  RH  048%=      5-min Rain = 0
KDC1 171456Z 01007KT 11/01 A3025 RMK A01 T01100005  RH  048%=      5-min Rain = 0
KDC1 171457Z 01008KT 11/01 A3025 RMK A01 T01100005  RH  048%=      5-min Rain = 0
KDC1 171458Z 02008KT 11/01 A3025 RMK A01 T01110006  RH  048%=      5-min Rain = 0
KDC1 171459Z 01007KT 11/01 A3025 RMK A01 T01130006  RH  048%=      5-min Rain = 0
KDC1 171500Z 02008KT 11/01 A3025 RMK A01 T01140006  RH  047%=      5-min Rain = 0
KDC1 171501Z 01008KT 11/01 A3025 RMK A01 T01140007  RH  047%=      5-min Rain = 0
KDC1 171502Z 01009KT 12/01 A3025 RMK A01 T01150006  RH  047%=      5-min Rain = 0
KDC1 171503Z 02008KT 12/01 A3025 RMK A01 T01160006  RH  047%=      5-min Rain = 0
KDC1 171504Z 02010KT 12/01 A3025 RMK A01 T01170006  RH  046%=      5-min Rain = 0
KDC1 171505Z 01009KT 12/00 A3025 RMK A01 T01180004  RH  046%=      5-min Rain = 0
KDC1 171506Z 02010KT 12/01 A3025 RMK A01 T01190005  RH  045%=      5-min Rain = 0
KDC1 171507Z 02009KT 12/01 A3025 RMK A01 T01190005  RH  046%=      5-min Rain = 0
KDC1 171508Z 02010KT 12/01 A3025 RMK A01 T01190006  RH  046%=      5-min Rain = 0
KDC1 171509Z 02010KT 12/01 A3025 RMK A01 T01200005  RH  045%=      5-min Rain = 0
KDC1 171510Z 02009KT 12/01 A3025 RMK A01 T01200005  RH  045%=      5-min Rain = 0
KDC1 171511Z 01010KT 12/01 A3025 RMK A01 T01210006  RH  045%=      5-min Rain = 0
KDC1 171512Z 01010KT 12/00 A3025 RMK A01 T01210004  RH  045%=      5-min Rain = 0
KDC1 171513Z 01010KT 12/01 A3025 RMK A01 T01220005  RH  045%=      5-min Rain = 0
KDC1 171514Z 01009KT 12/01 A3025 RMK A01 T01220006  RH  045%=      5-min Rain = 0
KDC1 171515Z 01009KT 12/01 A3025 RMK A01 T01220007  RH  045%=      5-min Rain = 0
KDC1 171516Z 01012KT 12/01 A3025 RMK A01 T01220007  RH  045%=      5-min Rain = 0
KDC1 171517Z 01011KT 12/00 A3025 RMK A01 T01220004  RH  044%=      5-min Rain = 0
KDC1 171518Z 01011KT 12/00 A3025 RMK A01 T01220004  RH  044%=      5-min Rain = 0
KDC1 171519Z 01013KT 12/01 A3025 RMK A01 T01230005  RH  044%=      5-min Rain = 0
KDC1 171520Z 02013KT 12/00 A3025 RMK A01 T01230003  RH  044%=      5-min Rain = 0
KDC1 171521Z 02012KT 12/00 A3024 RMK A01 T01240003  RH  043%=      5-min Rain = 0
KDC1 171522Z 02010KT 12/00 A3024 RMK A01 T01240004  RH  044%=      5-min Rain = 0
KDC1 171523Z 02010KT 12/01 A3024 RMK A01 T01240006  RH  044%=      5-min Rain = 0
KDC1 171524Z 02012KT 12/01 A3025 RMK A01 T01240006  RH  044%=      5-min Rain = 0
KDC1 171525Z 02012G17KT 13/00 A3025 RMK A01 T01250004  RH  043%=      5-min Rain = 0
KDC1 171526Z 02012KT 13/00 A3025 RMK A01 T01250004  RH  043%=      5-min Rain = 0
KDC1 171527Z 02009KT 13/00 A3025 RMK A01 T01260004  RH  043%=      5-min Rain = 0
KDC1 171528Z 01013G18KT 13/01 A3025 RMK A01 T01260005  RH  044%=      5-min Rain = 0
KDC1 171529Z 02014KT 13/00 A3025 RMK A01 T01260003  RH  043%=      5-min Rain = 0
KDC1 171530Z 02011KT 13/00 A3025 RMK A01 T01260002  RH  042%=      5-min Rain = 0
KDC1 171531Z 02012KT 13/00 A3025 RMK A01 T01270002  RH  042%=      5-min Rain = 0
KDC1 171532Z 01013KT 13/00 A3025 RMK A01 T01270004  RH  043%=      5-min Rain = 0
KDC1 171533Z 01013KT 13/00 A3025 RMK A01 T01270004  RH  043%=      5-min Rain = 0
KDC1 171534Z 01011KT 13/00 A3025 RMK A01 T01280004  RH  043%=      5-min Rain = 0
KDC1 171535Z 01014KT 13/00 A3025 RMK A01 T01280004  RH  042%=      5-min Rain = 0
KDC1 171536Z 01013KT 13/00 A3025 RMK A01 T01290004  RH  042%=      5-min Rain = 0
KDC1 171537Z 01014KT 13/01 A3025 RMK A01 T01300005  RH  042%=      5-min Rain = 0
KDC1 171538Z 02013KT 13/00 A3025 RMK A01 T01300004  RH  042%=      5-min Rain = 0
KDC1 171539Z 02011KT 13/00 A3025 RMK A01 T01310004  RH  042%=      5-min Rain = 0
KDC1 171540Z 02013KT 13/01 A3025 RMK A01 T01320005  RH  042%=      5-min Rain = 0
KDC1 171541Z 01014KT 13/00 A3025 RMK A01 T01320004  RH  041%=      5-min Rain = 0
KDC1 171542Z 01011KT 13/00 A3025 RMK A01 T01320003  RH  041%=      5-min Rain = 0
KDC1 171543Z 01014KT 13/00 A3025 RMK A01 T01320003  RH  041%=      5-min Rain = 0
KDC1 171544Z 02011G16KT 13/00 A3025 RMK A01 T01320003  RH  041%=      5-min Rain = 0
KDC1 171545Z 02012KT 13/00 A3025 RMK A01 T01320004  RH  041%=      5-min Rain = 0
KDC1 171546Z 01012KT 13/00 A3025 RMK A01 T01320004  RH  041%=      5-min Rain = 0
KDC1 171547Z 02012KT 13/00 A3025 RMK A01 T01320004  RH  041%=      5-min Rain = 0
KDC1 171548Z 01011KT 13/00 A3025 RMK A01 T01320004  RH  041%=      5-min Rain = 0
KDC1 171549Z 01011KT 13/01 A3025 RMK A01 T01330007  RH  042%=      5-min Rain = 0
KDC1 171550Z 01012KT 13/01 A3025 RMK A01 T01340007  RH  042%=      5-min Rain = 0
KDC1 171551Z 00013KT 13/01 A3025 RMK A01 T01340006  RH  042%=      5-min Rain = 0
KDC1 171552Z 00014KT 13/01 A3026 RMK A01 T01340005  RH  041%=      5-min Rain = 0
KDC1 171553Z 01011KT 13/00 A3026 RMK A01 T01340004  RH  041%=      5-min Rain = 0
KDC1 171554Z 01013KT 14/00 A3026 RMK A01 T01350004  RH  041%=      5-min Rain = 0
KDC1 171555Z 01013KT 14/01 A3026 RMK A01 T01360005  RH  041%=      5-min Rain = 0
KDC1 171556Z 01014KT 14/00 A3026 RMK A01 T01350003  RH  040%=      5-min Rain = 0
KDC1 171557Z 01012G18KT 14/01 A3025 RMK A01 T01350006  RH  041%=      5-min Rain = 0
KDC1 171558Z 01013KT 14/01 A3025 RMK A01 T01360005  RH  041%=      5-min Rain = 0
KDC1 171559Z 00014KT 14/00 A3025 RMK A01 T01360004  RH  040%=      5-min Rain = 0
KDC1 171600Z 01013KT 14/01 A3025 RMK A01 T01370005  RH  040%=      5-min Rain = 0
KDC1 171601Z 02013KT 14/01 A3025 RMK A01 T01370007  RH  041%=      5-min Rain = 0
KDC1 171602Z 00012KT 14/00 A3025 RMK A01 T01370004  RH  040%=      5-min Rain = 0
KDC1 171603Z 01013KT 14/00 A3025 RMK A01 T01370004  RH  040%=      5-min Rain = 0
KDC1 171604Z 01013KT 14/01 A3025 RMK A01 T01380005  RH  040%=      5-min Rain = 0
KDC1 171605Z 02013KT 14/00 A3025 RMK A01 T01380004  RH  040%=      5-min Rain = 0
KDC1 171606Z 01012KT 14/00 A3025 RMK A01 T01380004  RH  040%=      5-min Rain = 0
KDC1 171607Z 01010KT 14/00 A3025 RMK A01 T01390004  RH  040%=      5-min Rain = 0
KDC1 171608Z 01010KT 14/01 A3025 RMK A01 T01400006  RH  040%=      5-min Rain = 0
KDC1 171609Z 01012KT 14/01 A3025 RMK A01 T01400006  RH  040%=      5-min Rain = 0
KDC1 171610Z 01009KT 14/01 A3025 RMK A01 T01400005  RH  040%=      5-min Rain = 0
KDC1 171611Z 01010KT 14/01 A3025 RMK A01 T01400006  RH  040%=      5-min Rain = 0
KDC1 171612Z 01011KT 14/01 A3025 RMK A01 T01400005  RH  040%=      5-min Rain = 0
KDC1 171613Z 02011KT 14/01 A3026 RMK A01 T01410007  RH  040%=      5-min Rain = 0
KDC1 171614Z 01009KT 14/01 A3026 RMK A01 T01410007  RH  040%=      5-min Rain = 0
KDC1 171615Z 01010KT 14/01 A3026 RMK A01 T01410006  RH  040%=      5-min Rain = 0
KDC1 171616Z 01010KT 14/00 A3026 RMK A01 T01410004  RH  039%=      5-min Rain = 0
KDC1 171617Z 01010KT 14/00 A3026 RMK A01 T01410003  RH  039%=      5-min Rain = 0
KDC1 171618Z 00009KT 14/01 A3026 RMK A01 T01410005  RH  040%=      5-min Rain = 0
KDC1 171619Z 00008KT 14/01 A3026 RMK A01 T01410005  RH  040%=      5-min Rain = 0
KDC1 171620Z 02010KT 14/01 A3026 RMK A01 T01410007  RH  040%=      5-min Rain = 0
KDC1 171621Z 02008KT 14/01 A3026 RMK A01 T01420006  RH  039%=      5-min Rain = 0
KDC1 171622Z 01009KT 14/01 A3026 RMK A01 T01430008  RH  040%=      5-min Rain = 0
KDC1 171623Z 02009KT 14/01 A3027 RMK A01 T01440005  RH  039%=      5-min Rain = 0
KDC1 171624Z 01009KT 14/01 A3027 RMK A01 T01440006  RH  039%=      5-min Rain = 0
KDC1 171625Z 00010KT 14/01 A3026 RMK A01 T01430006  RH  039%=      5-min Rain = 0
KDC1 171626Z 01011KT 14/00 A3026 RMK A01 T01430004  RH  039%=      5-min Rain = 0
KDC1 171627Z 00007KT 14/01 A3026 RMK A01 T01430006  RH  039%=      5-min Rain = 0
KDC1 171628Z 00009KT 14/01 A3026 RMK A01 T01430007  RH  039%=      5-min Rain = 0
KDC1 171629Z 01010KT 14/01 A3026 RMK A01 T01440006  RH  039%=      5-min Rain = 0
KDC1 171630Z 01009KT 15/01 A3026 RMK A01 T01450005  RH  038%=      5-min Rain = 0
KDC1 171631Z 01009KT 14/01 A3026 RMK A01 T01440006  RH  039%=      5-min Rain = 0
KDC1 171632Z 01009KT 14/01 A3026 RMK A01 T01440008  RH  039%=      5-min Rain = 0
KDC1 171633Z 03008KT 15/01 A3026 RMK A01 T01450007  RH  039%=      5-min Rain = 0
KDC1 171634Z 04007KT 15/00 A3026 RMK A01 T01450003  RH  038%=      5-min Rain = 0
KDC1 171635Z 03007KT 15/00 A3026 RMK A01 T01450004  RH  038%=      5-min Rain = 0
KDC1 171636Z 05009KT 15/01 A3026 RMK A01 T01470008  RH  039%=      5-min Rain = 0
KDC1 171637Z 06005KT 14/01 A3026 RMK A01 T01420011  RH  041%=      5-min Rain = 0
KDC1 171638Z 09004KT 14/01 A3026 RMK A01 T01400014  RH  042%=      5-min Rain = 0
KDC1 171639Z 08004KT 14/01 A3026 RMK A01 T01390011  RH  042%=      5-min Rain = 0
KDC1 171640Z 07004KT 14/01 A3027 RMK A01 T01400013  RH  042%=      5-min Rain = 0
KDC1 171641Z 07005KT 14/01 A3026 RMK A01 T01390013  RH  042%=      5-min Rain = 0
KDC1 171642Z 07005KT 14/01 A3026 RMK A01 T01390013  RH  042%=      5-min Rain = 0
KDC1 171643Z 06007KT 14/01 A3026 RMK A01 T01390013  RH  042%=      5-min Rain = 0
KDC1 171644Z 04007KT 14/01 A3026 RMK A01 T01400011  RH  041%=      5-min Rain = 0
KDC1 171645Z 04009KT 14/01 A3026 RMK A01 T01420013  RH  041%=      5-min Rain = 0
KDC1 171646Z 04007KT 14/01 A3026 RMK A01 T01420010  RH  040%=      5-min Rain = 0
KDC1 171647Z 04007KT 14/01 A3026 RMK A01 T01400010  RH  041%=      5-min Rain = 0
KDC1 171648Z 03006KT 14/01 A3026 RMK A01 T01390011  RH  042%=      5-min Rain = 0
KDC1 171649Z 03006KT 14/01 A3026 RMK A01 T01400011  RH  041%=      5-min Rain = 0
KDC1 171650Z 03006KT 14/01 A3026 RMK A01 T01400010  RH  041%=      5-min Rain = 0
KDC1 171651Z 03007KT 14/01 A3026 RMK A01 T01390010  RH  041%=      5-min Rain = 0
KDC1 171652Z 03004KT 14/01 A3025 RMK A01 T01380009  RH  041%=      5-min Rain = 0
KDC1 171653Z 03005KT 14/01 A3026 RMK A01 T01370012  RH  042%=      5-min Rain = 0
KDC1 171654Z 04008KT 14/01 A3026 RMK A01 T01380013  RH  042%=      5-min Rain = 0
KDC1 171655Z 03007KT 14/01 A3026 RMK A01 T01390011  RH  042%=      5-min Rain = 0
KDC1 171656Z 03008KT 14/01 A3026 RMK A01 T01400012  RH  042%=      5-min Rain = 0
KDC1 171657Z 04008KT 14/01 A3026 RMK A01 T01410011  RH  041%=      5-min Rain = 0
KDC1 171658Z 04008KT 14/01 A3026 RMK A01 T01390010  RH  041%=      5-min Rain = 0
KDC1 171659Z 03007KT 14/01 A3026 RMK A01 T01370009  RH  042%=      5-min Rain = 0
KDC1 171700Z 04007KT 14/01 A3026 RMK A01 T01360009  RH  042%=      5-min Rain = 0
KDC1 171701Z 04007KT 14/01 A3026 RMK A01 T01350009  RH  042%=      5-min Rain = 0
KDC1 171702Z 05006KT 14/01 A3026 RMK A01 T01350009  RH  042%=      5-min Rain = 0
KDC1 171703Z 06005KT 14/01 A3026 RMK A01 T01350009  RH  042%=      5-min Rain = 0
KDC1 171704Z 06006KT 14/01 A3026 RMK A01 T01360009  RH  042%=      5-min Rain = 0
KDC1 171705Z 05008KT 14/01 A3026 RMK A01 T01370008  RH  041%=      5-min Rain = 0
KDC1 171706Z 06009KT 14/01 A3026 RMK A01 T01360007  RH  041%=      5-min Rain = 0
KDC1 171707Z 06009KT 14/01 A3026 RMK A01 T01350007  RH  041%=      5-min Rain = 0
KDC1 171708Z 05008KT 14/01 A3026 RMK A01 T01350006  RH  041%=      5-min Rain = 0
KDC1 171709Z 05008KT 13/01 A3026 RMK A01 T01330005  RH  041%=      5-min Rain = 0
KDC1 171710Z 05008KT 13/01 A3026 RMK A01 T01340006  RH  042%=      5-min Rain = 0
KDC1 171711Z 04008KT 13/01 A3026 RMK A01 T01340005  RH  041%=      5-min Rain = 0
KDC1 171712Z 05008KT 14/01 A3026 RMK A01 T01350005  RH  041%=      5-min Rain = 0
KDC1 171713Z 05008KT 14/00 A3026 RMK A01 T01350004  RH  041%=      5-min Rain = 0
KDC1 171714Z 05010KT 13/00 A3026 RMK A01 T01340003  RH  041%=      5-min Rain = 0
KDC1 171715Z 05009KT 13/00 A3026 RMK A01 T01330002  RH  041%=      5-min Rain = 0
KDC1 171716Z 06009KT 13/01 A3026 RMK A01 T01320005  RH  042%=      5-min Rain = 0
KDC1 171717Z 05009KT 13/01 A3026 RMK A01 T01320005  RH  042%=      5-min Rain = 0
KDC1 171718Z 04007KT 13/00 A3026 RMK A01 T012800-0  RH  041%=      5-min Rain = 0
KDC1 171719Z 04006KT 13/M00 A3026 RMK A01 T01251001  RH  042%=      5-min Rain = 0
KDC1 171720Z 06008KT 13/00 A3026 RMK A01 T01250001  RH  043%=      5-min Rain = 0
KDC1 171721Z 07007KT 13/00 A3026 RMK A01 T01260001  RH  042%=      5-min Rain = 0
KDC1 171722Z 06008KT 12/M00 A3026 RMK A01 T01241001  RH  042%=      5-min Rain = 0
KDC1 171723Z 05007KT 13/00 A3026 RMK A01 T01250003  RH  043%=      5-min Rain = 0
KDC1 171724Z 04008KT 13/00 A3025 RMK A01 T01270003  RH  042%=      5-min Rain = 0
KDC1 171725Z 04006KT 13/00 A3025 RMK A01 T01260003  RH  043%=      5-min Rain = 0
KDC1 171726Z 04004KT 13/01 A3025 RMK A01 T01250005  RH  044%=      5-min Rain = 0
KDC1 171727Z 02006KT 13/01 A3025 RMK A01 T01260007  RH  044%=      5-min Rain = 0
KDC1 171728Z 01005KT 13/01 A3025 RMK A01 T01270006  RH  043%=      5-min Rain = 0
KDC1 171729Z 02004KT 13/01 A3025 RMK A01 T01280005  RH  043%=      5-min Rain = 0
KDC1 171730Z 02007KT 13/01 A3025 RMK A01 T01280005  RH  043%=      5-min Rain = 0
KDC1 171731Z 03007KT 13/01 A3025 RMK A01 T01290007  RH  043%=      5-min Rain = 0
KDC1 171732Z 03007KT 13/00 A3025 RMK A01 T01310004  RH  042%=      5-min Rain = 0
KDC1 171733Z 04008KT 13/01 A3024 RMK A01 T01310005  RH  042%=      5-min Rain = 0
KDC1 171734Z 03007KT 13/00 A3024 RMK A01 T01330004  RH  041%=      5-min Rain = 0
KDC1 171735Z 03007KT 13/00 A3024 RMK A01 T01340004  RH  041%=      5-min Rain = 0
KDC1 171736Z 03008KT 14/01 A3024 RMK A01 T01350005  RH  041%=      5-min Rain = 0
KDC1 171737Z 02006KT 14/00 A3024 RMK A01 T01350003  RH  040%=      5-min Rain = 0
KDC1 171738Z 04005KT 14/01 A3025 RMK A01 T01350005  RH  041%=      5-min Rain = 0
KDC1 171739Z 05006KT 14/00 A3025 RMK A01 T01370003  RH  040%=      5-min Rain = 0
KDC1 171740Z 03006KT 14/00 A3025 RMK A01 T01370003  RH  040%=      5-min Rain = 0
KDC1 171741Z 03006KT 14/01 A3025 RMK A01 T01370006  RH  041%=      5-min Rain = 0
KDC1 171742Z 01008KT 14/01 A3025 RMK A01 T01380005  RH  040%=      5-min Rain = 0
KDC1 171743Z 01007KT 14/01 A3024 RMK A01 T01390005  RH  040%=      5-min Rain = 0
KDC1 171744Z 02006KT 14/01 A3024 RMK A01 T01410006  RH  040%=      5-min Rain = 0
KDC1 171745Z 03007KT 14/01 A3023 RMK A01 T01420007  RH  040%=      5-min Rain = 0
KDC1 171746Z 02007KT 14/01 A3023 RMK A01 T01430007  RH  040%=      5-min Rain = 0
KDC1 171747Z 04007KT 14/01 A3023 RMK A01 T01430010  RH  040%=      5-min Rain = 0
KDC1 171748Z 04006KT 15/01 A3023 RMK A01 T01460009  RH  039%=      5-min Rain = 0
KDC1 171749Z 01006KT 15/01 A3023 RMK A01 T01470008  RH  039%=      5-min Rain = 0
KDC1 171750Z 35006KT 15/01 A3024 RMK A01 T01470007  RH  038%=      5-min Rain = 0
KDC1 171751Z 35007KT 15/00 A3024 RMK A01 T01470004  RH  038%=      5-min Rain = 0
KDC1 171752Z 01005KT 15/00 A3024 RMK A01 T01460004  RH  038%=      5-min Rain = 0
KDC1 171753Z 01003KT 15/01 A3024 RMK A01 T01450005  RH  038%=      5-min Rain = 0
KDC1 171754Z 02005KT 15/01 A3024 RMK A01 T01460007  RH  039%=      5-min Rain = 0
KDC1 171755Z 02006KT 15/01 A3023 RMK A01 T01470005  RH  038%=      5-min Rain = 0
KDC1 171756Z 02007KT 15/00 A3023 RMK A01 T01460004  RH  038%=      5-min Rain = 0
KDC1 171757Z 00005KT 15/00 A3023 RMK A01 T01450004  RH  038%=      5-min Rain = 0
KDC1 171758Z 01007KT 15/00 A3023 RMK A01 T01460004  RH  038%=      5-min Rain = 0
KDC1 171759Z 02006KT 15/00 A3023 RMK A01 T01470004  RH  038%=      5-min Rain = 0
KDC1 171800Z 01007KT 15/00 A3023 RMK A01 T01480004  RH  037%=      5-min Rain = 0
KDC1 171801Z 01006KT 15/00 A3023 RMK A01 T01480004  RH  037%=      5-min Rain = 0
KDC1 171802Z 01006KT 15/01 A3023 RMK A01 T01480005  RH  038%=      5-min Rain = 0
KDC1 171803Z 02005KT 15/01 A3023 RMK A01 T01480006  RH  038%=      5-min Rain = 0
KDC1 171804Z 03006KT 15/01 A3022 RMK A01 T01490007  RH  038%=      5-min Rain = 0
KDC1 171805Z 05006KT 15/01 A3022 RMK A01 T01510006  RH  037%=      5-min Rain = 0
KDC1 171806Z 04004KT 15/01 A3022 RMK A01 T01520005  RH  037%=      5-min Rain = 0
KDC1 171807Z 01005KT 15/00 A3023 RMK A01 T01530003  RH  036%=      5-min Rain = 0
KDC1 171808Z 01007KT 15/00 A3023 RMK A01 T01530002  RH  036%=      5-min Rain = 0
KDC1 171809Z 02006KT 15/00 A3023 RMK A01 T01510000  RH  036%=      5-min Rain = 0
KDC1 171810Z 03006KT 15/00 A3022 RMK A01 T01500000  RH  036%=      5-min Rain = 0
KDC1 171811Z 03006KT 15/00 A3022 RMK A01 T01490000  RH  036%=      5-min Rain = 0
KDC1 171812Z 02006KT 15/M00 A3022 RMK A01 T01481002  RH  036%=      5-min Rain = 0
KDC1 171813Z 05006KT 15/M00 A3021 RMK A01 T01481001  RH  036%=      5-min Rain = 0
KDC1 171814Z 05005KT 15/00 A3022 RMK A01 T01490001  RH  036%=      5-min Rain = 0
KDC1 171815Z 02004KT 15/00 A3022 RMK A01 T01510002  RH  036%=      5-min Rain = 0
KDC1 171816Z 03005KT 15/00 A3022 RMK A01 T01510001  RH  036%=      5-min Rain = 0
KDC1 171817Z 04005KT 15/00 A3022 RMK A01 T015200-0  RH  035%=      5-min Rain = 0
KDC1 171818Z 06004KT 15/00 A3022 RMK A01 T01510000  RH  036%=      5-min Rain = 0
KDC1 171819Z 06005KT 15/00 A3022 RMK A01 T01520001  RH  036%=      5-min Rain = 0
KDC1 171820Z 08005KT 15/00 A3022 RMK A01 T01520001  RH  036%=      5-min Rain = 0
KDC1 171821Z 09005KT 15/00 A3022 RMK A01 T015200-0  RH  035%=      5-min Rain = 0
KDC1 171822Z 10003KT 15/M00 A3022 RMK A01 T01531001  RH  035%=      5-min Rain = 0
KDC1 171823Z 11004KT 15/00 A3022 RMK A01 T01530002  RH  036%=      5-min Rain = 0
KDC1 171824Z 10003KT 15/00 A3022 RMK A01 T01540003  RH  036%=      5-min Rain = 0
KDC1 171825Z 10004KT 15/00 A3022 RMK A01 T01530003  RH  036%=      5-min Rain = 0
KDC1 171826Z 10003KT 15/01 A3022 RMK A01 T01530005  RH  036%=      5-min Rain = 0
KDC1 171827Z 10003KT 15/01 A3021 RMK A01 T01540005  RH  036%=      5-min Rain = 0
KDC1 171828Z 11005KT 16/01 A3021 RMK A01 T01550009  RH  037%=      5-min Rain = 0
KDC1 171829Z 11005KT 16/01 A3021 RMK A01 T01550009  RH  037%=      5-min Rain = 0
KDC1 171830Z 08006KT 16/01 A3021 RMK A01 T01550007  RH  037%=      5-min Rain = 0
KDC1 171831Z 07006KT 16/01 A3021 RMK A01 T01560006  RH  036%=      5-min Rain = 0
KDC1 171832Z 07005KT 16/01 A3022 RMK A01 T01550005  RH  036%=      5-min Rain = 0
KDC1 171833Z 08006KT 16/01 A3021 RMK A01 T01550007  RH  037%=      5-min Rain = 0
KDC1 171834Z 07006KT 16/01 A3021 RMK A01 T01560006  RH  036%=      5-min Rain = 0
KDC1 171835Z 09006KT 16/00 A3021 RMK A01 T01560004  RH  036%=      5-min Rain = 0
KDC1 171836Z 10007KT 16/01 A302 RMK A01 T01560006  RH  036%=      5-min Rain = 0
KDC1 171837Z 09005KT 16/01 A302 RMK A01 T01560005  RH  036%=      5-min Rain = 0
KDC1 171838Z 10005KT 16/00 A3021 RMK A01 T01560002  RH  035%=      5-min Rain = 0
KDC1 171839Z 10005KT 16/00 A3021 RMK A01 T01560000  RH  035%=      5-min Rain = 0
KDC1 171840Z 11007KT 16/00 A3021 RMK A01 T01570001  RH  035%=      5-min Rain = 0
KDC1 171841Z 11006KT 16/M00 A3021 RMK A01 T01571002  RH  034%=      5-min Rain = 0
KDC1 171842Z 12006KT 16/01 A3021 RMK A01 T01570006  RH  036%=      5-min Rain = 0
KDC1 171843Z 10006KT 16/01 A3021 RMK A01 T01570010  RH  037%=      5-min Rain = 0
KDC1 171844Z 09007KT 16/00 A302 RMK A01 T01570004  RH  035%=      5-min Rain = 0
KDC1 171845Z 11006KT 16/00 A302 RMK A01 T01560002  RH  035%=      5-min Rain = 0
KDC1 171846Z 10006KT 16/01 A302 RMK A01 T01560007  RH  036%=      5-min Rain = 0
KDC1 171847Z 11006KT 16/00 A302 RMK A01 T01560004  RH  036%=      5-min Rain = 0
KDC1 171848Z 11005KT 16/01 A302 RMK A01 T01570005  RH  035%=      5-min Rain = 0
KDC1 171849Z 11005KT 16/00 A302 RMK A01 T01580003  RH  035%=      5-min Rain = 0
KDC1 171850Z 11005KT 16/00 A302 RMK A01 T01580004  RH  035%=      5-min Rain = 0
KDC1 171851Z 11007KT 16/01 A302 RMK A01 T01570007  RH  036%=      5-min Rain = 0
KDC1 171852Z 11006KT 16/01 A302 RMK A01 T01570007  RH  036%=      5-min Rain = 0
KDC1 171853Z 11004KT 16/01 A302 RMK A01 T01570005  RH  035%=      5-min Rain = 0
KDC1 171854Z 11004KT 16/00 A302 RMK A01 T01570004  RH  035%=      5-min Rain = 0
KDC1 171855Z 09006KT 16/00 A302 RMK A01 T01580004  RH  035%=      5-min Rain = 0
KDC1 171856Z 10006KT 16/00 A302 RMK A01 T01580003  RH  035%=      5-min Rain = 0
KDC1 171857Z 10005KT 16/00 A302 RMK A01 T01590004  RH  035%=      5-min Rain = 0
KDC1 171858Z 11005KT 16/00 A302 RMK A01 T01590002  RH  034%=      5-min Rain = 0
KDC1 171859Z 12007KT 16/01 A3019 RMK A01 T01590007  RH  036%=      5-min Rain = 0
KDC1 171900Z 11006KT 16/01 A3019 RMK A01 T01590012  RH  037%=      5-min Rain = 0
KDC1 171901Z 12005KT 16/01 A3019 RMK A01 T01590011  RH  037%=      5-min Rain = 0
KDC1 171902Z 12005KT 16/02 A3019 RMK A01 T01590015  RH  038%=      5-min Rain = 0
KDC1 171903Z 13003KT 16/01 A302 RMK A01 T01580013  RH  037%=      5-min Rain = 0
KDC1 171904Z 11003KT 16/02 A302 RMK A01 T01580015  RH  038%=      5-min Rain = 0
KDC1 171905Z 09003KT 16/01 A3019 RMK A01 T01590012  RH  037%=      5-min Rain = 0
KDC1 171906Z 09003KT 16/01 A3019 RMK A01 T01590011  RH  037%=      5-min Rain = 0
KDC1 171907Z 10005KT 16/01 A3019 RMK A01 T01590010  RH  036%=      5-min Rain = 0
KDC1 171908Z 11005KT 16/01 A3019 RMK A01 T01590009  RH  036%=      5-min Rain = 0
KDC1 171909Z 10004KT 16/01 A3019 RMK A01 T01580009  RH  036%=      5-min Rain = 0
KDC1 171910Z 12004KT 16/01 A3019 RMK A01 T01580008  RH  036%=      5-min Rain = 0
KDC1 171911Z 14003KT 16/01 A3019 RMK A01 T01580011  RH  037%=      5-min Rain = 0
KDC1 171912Z 15005KT 16/02 A3019 RMK A01 T01590020  RH  039%=      5-min Rain = 0
KDC1 171913Z 17005KT 16/02 A3019 RMK A01 T01610016  RH  038%=      5-min Rain = 0
KDC1 171914Z 16004KT 16/02 A3019 RMK A01 T01610016  RH  038%=      5-min Rain = 0
KDC1 171915Z 17004KT 16/02 A3019 RMK A01 T01610015  RH  037%=      5-min Rain = 0
KDC1 171916Z 15004KT 16/01 A3019 RMK A01 T01610013  RH  037%=      5-min Rain = 0
KDC1 171917Z 16004KT 16/01 A3019 RMK A01 T01610013  RH  037%=      5-min Rain = 0
KDC1 171918Z 16005KT 16/02 A3019 RMK A01 T01610016  RH  038%=      5-min Rain = 0
KDC1 171919Z 17005KT 16/02 A3019 RMK A01 T01610016  RH  038%=      5-min Rain = 0
KDC1 171920Z 18004KT 16/01 A3019 RMK A01 T01600012  RH  037%=      5-min Rain = 0
KDC1 171921Z 17004KT 16/01 A3019 RMK A01 T01580012  RH  037%=      5-min Rain = 0
KDC1 171922Z 17005KT 16/01 A3019 RMK A01 T01570011  RH  037%=      5-min Rain = 0
KDC1 171923Z 18005KT 16/01 A3019 RMK A01 T01580010  RH  037%=      5-min Rain = 0
KDC1 171924Z 17004KT 16/01 A3018 RMK A01 T01570008  RH  036%=      5-min Rain = 0
KDC1 171925Z 14006KT 16/01 A3018 RMK A01 T01570010  RH  037%=      5-min Rain = 0
KDC1 171926Z 15006KT 16/01 A3018 RMK A01 T01570009  RH  037%=      5-min Rain = 0
KDC1 171927Z 15006KT 16/01 A3018 RMK A01 T01570008  RH  037%=      5-min Rain = 0
KDC1 171928Z 17004KT 16/01 A3018 RMK A01 T01560006  RH  036%=      5-min Rain = 0
KDC1 171929Z 19004KT 16/01 A3018 RMK A01 T01560005  RH  036%=      5-min Rain = 0
KDC1 171930Z 19005KT 16/01 A3018 RMK A01 T01560005  RH  036%=      5-min Rain = 0
KDC1 171931Z 19005KT 16/01 A3018 RMK A01 T01570006  RH  036%=      5-min Rain = 0
KDC1 171932Z 18005KT 16/01 A3018 RMK A01 T01580007  RH  036%=      5-min Rain = 0
KDC1 171933Z 19004KT 16/01 A3018 RMK A01 T01570009  RH  037%=      5-min Rain = 0
KDC1 171934Z 16005KT 16/01 A3018 RMK A01 T01570011  RH  037%=      5-min Rain = 0
KDC1 171935Z 16006KT 16/02 A3018 RMK A01 T01580016  RH  038%=      5-min Rain = 0
KDC1 171936Z 18005KT 16/02 A3018 RMK A01 T01580015  RH  038%=      5-min Rain = 0
KDC1 171937Z 17004KT 16/01 A3018 RMK A01 T01580010  RH  037%=      5-min Rain = 0
KDC1 171938Z 18004KT 16/01 A3018 RMK A01 T01590012  RH  037%=      5-min Rain = 0
KDC1 171939Z 18004KT 16/01 A3018 RMK A01 T01580010  RH  037%=      5-min Rain = 0
KDC1 171940Z 17004KT 16/01 A3018 RMK A01 T01580012  RH  037%=      5-min Rain = 0
KDC1 171941Z 17006KT 16/01 A3018 RMK A01 T01590013  RH  037%=      5-min Rain = 0
KDC1 171942Z 17005KT 16/01 A3017 RMK A01 T01600011  RH  036%=      5-min Rain = 0
KDC1 171943Z 18005KT 16/01 A3017 RMK A01 T01600010  RH  036%=      5-min Rain = 0
KDC1 171944Z 19004KT 16/01 A3017 RMK A01 T01600008  RH  036%=      5-min Rain = 0
KDC1 171945Z 20004KT 16/01 A3017 RMK A01 T01590007  RH  036%=      5-min Rain = 0
KDC1 171946Z 21002KT 16/01 A3017 RMK A01 T01580007  RH  036%=      5-min Rain = 0
KDC1 171947Z 18001KT 16/01 A3017 RMK A01 T01600010  RH  036%=      5-min Rain = 0
KDC1 171948Z 19004KT 16/01 A3017 RMK A01 T01630013  RH  036%=      5-min Rain = 0
KDC1 171949Z 20004KT 16/01 A3017 RMK A01 T01640011  RH  036%=      5-min Rain = 0
KDC1 171950Z 21005KT 16/01 A3017 RMK A01 T01640006  RH  034%=      5-min Rain = 0
KDC1 171951Z 23003KT 16/00 A3017 RMK A01 T01640003  RH  033%=      5-min Rain = 0
KDC1 171952Z 22003KT 16/00 A3017 RMK A01 T01630003  RH  034%=      5-min Rain = 0
KDC1 171953Z 21003KT 16/00 A3017 RMK A01 T01620003  RH  034%=      5-min Rain = 0
KDC1 171954Z 23002KT 16/00 A3017 RMK A01 T01630003  RH  034%=      5-min Rain = 0
KDC1 171955Z 20002KT 16/00 A3017 RMK A01 T01630002  RH  033%=      5-min Rain = 0
KDC1 171956Z 23002KT 16/01 A3017 RMK A01 T01640005  RH  034%=      5-min Rain = 0
KDC1 171957Z 23003KT 17/01 A3017 RMK A01 T01660006  RH  034%=      5-min Rain = 0
KDC1 171958Z 22002KT 17/01 A3017 RMK A01 T01670007  RH  034%=      5-min Rain = 0
KDC1 171959Z 22004KT 17/01 A3017 RMK A01 T01670006  RH  034%=      5-min Rain = 0
KDC1 172000Z 23004KT 17/00 A3017 RMK A01 T01670004  RH  033%=      5-min Rain = 0
KDC1 172001Z 23003KT 17/00 A3016 RMK A01 T01660004  RH  033%=      5-min Rain = 0
KDC1 172002Z 16002KT 17/01 A3016 RMK A01 T01650006  RH  034%=      5-min Rain = 0
KDC1 172003Z 24001KT 17/01 A3016 RMK A01 T01660006  RH  034%=      5-min Rain = 0
KDC1 172004Z 22001KT 17/01 A3016 RMK A01 T01670007  RH  034%=      5-min Rain = 0
KDC1 172005Z 18001KT 17/01 A3016 RMK A01 T01690008  RH  034%=      5-min Rain = 0
KDC1 172006Z 23004KT 17/01 A3016 RMK A01 T01710007  RH  033%=      5-min Rain = 0
KDC1 172007Z 23004KT 17/01 A3016 RMK A01 T01710005  RH  033%=      5-min Rain = 0
KDC1 172008Z 25004KT 17/01 A3016 RMK A01 T01710007  RH  033%=      5-min Rain = 0
KDC1 172009Z 29004KT 17/01 A3016 RMK A01 T01710007  RH  033%=      5-min Rain = 0
KDC1 172010Z 30003KT 17/00 A3016 RMK A01 T01690002  RH  032%=      5-min Rain = 0
KDC1 172011Z 29003KT 17/00 A3016 RMK A01 T01670002  RH  033%=      5-min Rain = 0
KDC1 172012Z 26003KT 17/00 A3016 RMK A01 T01660004  RH  033%=      5-min Rain = 0
KDC1 172013Z 26003KT 17/00 A3016 RMK A01 T01670002  RH  033%=      5-min Rain = 0
KDC1 172014Z 24005KT 17/00 A3016 RMK A01 T01680001  RH  032%=      5-min Rain = 0
KDC1 172015Z 25004KT 17/00 A3016 RMK A01 T01670003  RH  033%=      5-min Rain = 0
KDC1 172016Z 20004KT 17/00 A3016 RMK A01 T01670002  RH  033%=      5-min Rain = 0
KDC1 172017Z 21005KT 17/00 A3016 RMK A01 T01680003  RH  033%=      5-min Rain = 0
KDC1 172018Z 20004KT 17/00 A3015 RMK A01 T01700002  RH  032%=      5-min Rain = 0
KDC1 172019Z 20004KT 17/00 A3015 RMK A01 T01720000  RH  031%=      5-min Rain = 0
KDC1 172020Z 25002KT 17/00 A3015 RMK A01 T01730002  RH  031%=      5-min Rain = 0
KDC1 172021Z 25003KT 18/00 A3015 RMK A01 T01750003  RH  031%=      5-min Rain = 0
KDC1 172022Z 24005KT 18/00 A3015 RMK A01 T01750003  RH  031%=      5-min Rain = 0
KDC1 172023Z 23004KT 17/00 A3015 RMK A01 T01740001  RH  031%=      5-min Rain = 0
KDC1 172024Z 24002KT 17/00 A3015 RMK A01 T01730002  RH  031%=      5-min Rain = 0
KDC1 172025Z 24004KT 17/00 A3015 RMK A01 T01730003  RH  032%=      5-min Rain = 0
KDC1 172026Z 22004KT 17/01 A3015 RMK A01 T01740005  RH  032%=      5-min Rain = 0
KDC1 172027Z 23003KT 17/01 A3015 RMK A01 T01740005  RH  032%=      5-min Rain = 0
KDC1 172028Z 23005KT 17/01 A3015 RMK A01 T01740005  RH  032%=      5-min Rain = 0
KDC1 172029Z 23004KT 18/00 A3015 RMK A01 T01750002  RH  031%=      5-min Rain = 0
KDC1 172030Z 24005KT 17/00 A3015 RMK A01 T01740003  RH  031%=      5-min Rain = 0
KDC1 172031Z 22005KT 17/00 A3015 RMK A01 T01740002  RH  031%=      5-min Rain = 0
KDC1 172032Z 23002KT 17/00 A3015 RMK A01 T01730002  RH  031%=      5-min Rain = 0
KDC1 172033Z 23004KT 17/00 A3015 RMK A01 T01730004  RH  032%=      5-min Rain = 0
KDC1 172034Z 23003KT 17/00 A3015 RMK A01 T01740004  RH  032%=      5-min Rain = 0
KDC1 172035Z 25004KT 18/00 A3015 RMK A01 T01750003  RH  031%=      5-min Rain = 0
KDC1 172036Z 22006KT 17/00 A3015 RMK A01 T01740004  RH  032%=      5-min Rain = 0
KDC1 172037Z 22007KT 18/00 A3015 RMK A01 T01760003  RH  031%=      5-min Rain = 0
KDC1 172038Z 24006KT 18/00 A3015 RMK A01 T01760002  RH  031%=      5-min Rain = 0
KDC1 172039Z 24006KT 18/00 A3015 RMK A01 T01750003  RH  031%=      5-min Rain = 0
KDC1 172040Z 21005KT 18/00 A3015 RMK A01 T01760004  RH  031%=      5-min Rain = 0
KDC1 172041Z 25005KT 18/00 A3015 RMK A01 T01760001  RH  031%=      5-min Rain = 0
KDC1 172042Z 23006KT 18/00 A3014 RMK A01 T01760003  RH  031%=      5-min Rain = 0
KDC1 172043Z 25003KT 18/00 A3015 RMK A01 T01770002  RH  031%=      5-min Rain = 0
KDC1 172044Z 24004KT 18/00 A3015 RMK A01 T01780002  RH  030%=      5-min Rain = 0
KDC1 172045Z 23004KT 18/00 A3015 RMK A01 T01770000  RH  030%=      5-min Rain = 0
KDC1 172046Z 21002KT 18/00 A3015 RMK A01 T01750002  RH  031%=      5-min Rain = 0
KDC1 172047Z 21003KT 18/01 A3014 RMK A01 T01780006  RH  031%=      5-min Rain = 0
KDC1 172048Z 23003KT 18/01 A3014 RMK A01 T01790005  RH  031%=      5-min Rain = 0
KDC1 172049Z 23004KT 18/01 A3014 RMK A01 T01800005  RH  031%=      5-min Rain = 0
KDC1 172050Z 24007KT 18/01 A3014 RMK A01 T01810005  RH  031%=      5-min Rain = 0
KDC1 172051Z 24004KT 18/00 A3014 RMK A01 T01800004  RH  030%=      5-min Rain = 0
KDC1 172052Z 22004KT 18/01 A3014 RMK A01 T01790006  RH  031%=      5-min Rain = 0
KDC1 172053Z 23006KT 18/01 A3014 RMK A01 T01790006  RH  031%=      5-min Rain = 0
KDC1 172054Z 24007KT 18/00 A3014 RMK A01 T01780002  RH  030%=      5-min Rain = 0
KDC1 172055Z 25007KT 18/M00 A3014 RMK A01 T01771001  RH  030%=      5-min Rain = 0
KDC1 172056Z 25006KT 18/M00 A3014 RMK A01 T01761001  RH  030%=      5-min Rain = 0
KDC1 172057Z 25005KT 18/M00 A3014 RMK A01 T01761002  RH  030%=      5-min Rain = 0
KDC1 172058Z 20003KT 18/00 A3014 RMK A01 T01760001  RH  031%=      5-min Rain = 0
KDC1 172059Z 21003KT 18/00 A3014 RMK A01 T01770002  RH  031%=      5-min Rain = 0
KDC1 172100Z 22004KT 18/00 A3014 RMK A01 T01770002  RH  031%=      5-min Rain = 0
KDC1 172101Z 22004KT 18/00 A3014 RMK A01 T01780002  RH  031%=      5-min Rain = 0
KDC1 172102Z 21004KT 18/00 A3014 RMK A01 T01780003  RH  031%=      5-min Rain = 0
KDC1 172103Z 21004KT 18/00 A3014 RMK A01 T01780002  RH  030%=      5-min Rain = 0
KDC1 172104Z 22004KT 18/00 A3014 RMK A01 T01770002  RH  031%=      5-min Rain = 0
KDC1 172105Z 22004KT 18/00 A3014 RMK A01 T01780004  RH  031%=      5-min Rain = 0
KDC1 172106Z 23006KT 18/01 A3014 RMK A01 T01780005  RH  031%=      5-min Rain = 0
KDC1 172107Z 23003KT 18/01 A3014 RMK A01 T01780006  RH  031%=      5-min Rain = 0
KDC1 172108Z 21004KT 18/01 A3014 RMK A01 T01780007  RH  032%=      5-min Rain = 0
KDC1 172109Z 21004KT 18/01 A3014 RMK A01 T01780005  RH  031%=      5-min Rain = 0
KDC1 172110Z 23004KT 18/00 A3014 RMK A01 T01780004  RH  031%=      5-min Rain = 0
KDC1 172111Z 22003KT 18/01 A3014 RMK A01 T01770006  RH  032%=      5-min Rain = 0
KDC1 172112Z 20004KT 18/00 A3014 RMK A01 T01770004  RH  031%=      5-min Rain = 0
KDC1 172113Z 19005KT 18/00 A3014 RMK A01 T01770003  RH  031%=      5-min Rain = 0
KDC1 172114Z 21004KT 18/00 A3014 RMK A01 T01760002  RH  031%=      5-min Rain = 0
KDC1 172115Z 19003KT 18/00 A3014 RMK A01 T01760002  RH  031%=      5-min Rain = 0
KDC1 172116Z 19003KT 18/00 A3014 RMK A01 T01750004  RH  031%=      5-min Rain = 0
KDC1 172117Z 18003KT 18/00 A3014 RMK A01 T01750003  RH  031%=      5-min Rain = 0
KDC1 172118Z 20002KT 18/00 A3014 RMK A01 T01750002  RH  031%=      5-min Rain = 0
KDC1 172119Z 19001KT 18/01 A3014 RMK A01 T01750005  RH  032%=      5-min Rain = 0
KDC1 172120Z 18002KT 18/01 A3014 RMK A01 T01760007  RH  032%=      5-min Rain = 0
KDC1 172121Z 23002KT 18/01 A3014 RMK A01 T01770005  RH  031%=      5-min Rain = 0
KDC1 172122Z 25003KT 18/00 A3014 RMK A01 T01770000  RH  030%=      5-min Rain = 0
KDC1 172123Z 26004KT 18/M00 A3014 RMK A01 T01761001  RH  030%=      5-min Rain = 0
KDC1 172124Z 25005KT 18/M00 A3015 RMK A01 T01751003  RH  030%=      5-min Rain = 0
KDC1 172125Z 27005KT 18/M00 A3014 RMK A01 T01751002  RH  030%=      5-min Rain = 0
KDC1 172126Z 26004KT 18/M00 A3014 RMK A01 T01751002  RH  030%=      5-min Rain = 0
KDC1 172127Z 23002KT 18/M00 A3014 RMK A01 T01751002  RH  030%=      5-min Rain = 0
KDC1 172128Z 23002KT 18/M00 A3014 RMK A01 T01761002  RH  030%=      5-min Rain = 0
KDC1 172129Z 22001KT 18/00 A3014 RMK A01 T01760001  RH  030%=      5-min Rain = 0
KDC1 172130Z 23004KT 18/00 A3014 RMK A01 T01770001  RH  030%=      5-min Rain = 0
KDC1 172131Z 24004KT 18/00 A3015 RMK A01 T01780003  RH  031%=      5-min Rain = 0
KDC1 172132Z 23002KT 18/01 A3015 RMK A01 T01780005  RH  031%=      5-min Rain = 0
KDC1 172133Z 23002KT 18/00 A3015 RMK A01 T01790004  RH  031%=      5-min Rain = 0
KDC1 172134Z 24003KT 18/00 A3014 RMK A01 T01800003  RH  030%=      5-min Rain = 0
KDC1 172135Z 24002KT 18/00 A3014 RMK A01 T01790002  RH  030%=      5-min Rain = 0
KDC1 172136Z 20001KT 18/00 A3014 RMK A01 T01790003  RH  031%=      5-min Rain = 0
KDC1 172137Z 19001KT 18/00 A3014 RMK A01 T01790004  RH  031%=      5-min Rain = 0
KDC1 172138Z 19003KT 18/01 A3014 RMK A01 T01790009  RH  032%=      5-min Rain = 0
KDC1 172139Z 19004KT 18/01 A3014 RMK A01 T01790006  RH  031%=      5-min Rain = 0
KDC1 172140Z 22005KT 18/01 A3014 RMK A01 T01790005  RH  031%=      5-min Rain = 0
KDC1 172141Z 23005KT 18/00 A3014 RMK A01 T01780002  RH  031%=      5-min Rain = 0
KDC1 172142Z 22005KT 18/00 A3014 RMK A01 T01760003  RH  031%=      5-min Rain = 0
KDC1 172143Z 22004KT 18/00 A3014 RMK A01 T01760002  RH  031%=      5-min Rain = 0
KDC1 172144Z 21002KT 18/00 A3014 RMK A01 T01760003  RH  031%=      5-min Rain = 0
KDC1 172145Z 19005KT 18/00 A3014 RMK A01 T01770001  RH  030%=      5-min Rain = 0
KDC1 172146Z 23004KT 18/00 A3014 RMK A01 T017700-0  RH  030%=      5-min Rain = 0
KDC1 172147Z 23004KT 18/00 A3014 RMK A01 T01770002  RH  031%=      5-min Rain = 0
KDC1 172148Z 23003KT 18/00 A3014 RMK A01 T01770003  RH  031%=      5-min Rain = 0
KDC1 172149Z 24003KT 18/00 A3014 RMK A01 T01770004  RH  031%=      5-min Rain = 0
KDC1 172150Z 24004KT 18/00 A3014 RMK A01 T01770003  RH  031%=      5-min Rain = 0
KDC1 172151Z 24003KT 18/00 A3014 RMK A01 T01770003  RH  031%=      5-min Rain = 0
KDC1 172152Z 24003KT 18/00 A3014 RMK A01 T017600-0  RH  030%=      5-min Rain = 0
KDC1 172153Z 20003KT 18/00 A3014 RMK A01 T01750001  RH  031%=      5-min Rain = 0
KDC1 172154Z 18004KT 18/00 A3014 RMK A01 T01750002  RH  031%=      5-min Rain = 0
KDC1 172155Z 20003KT 18/00 A3014 RMK A01 T01750004  RH  031%=      5-min Rain = 0
KDC1 172156Z 20001KT 18/00 A3014 RMK A01 T01760004  RH  031%=      5-min Rain = 0
KDC1 172157Z 19002KT 18/01 A3014 RMK A01 T01770005  RH  031%=      5-min Rain = 0
KDC1 172158Z 19003KT 18/01 A3014 RMK A01 T01780006  RH  031%=      5-min Rain = 0
KDC1 172159Z 18004KT 18/01 A3014 RMK A01 T01790005  RH  031%=      5-min Rain = 0
KDC1 172200Z 19005KT 18/00 A3014 RMK A01 T01790004  RH  031%=      5-min Rain = 0
KDC1 172201Z 20003KT 18/00 A3014 RMK A01 T01780002  RH  030%=      5-min Rain = 0
KDC1 172202Z 21003KT 18/00 A3014 RMK A01 T01780000  RH  030%=      5-min Rain = 0
KDC1 172203Z 19002KT 18/M00 A3014 RMK A01 T01771003  RH  030%=      5-min Rain = 0
KDC1 172204Z 19002KT 18/00 A3014 RMK A01 T01760004  RH  031%=      5-min Rain = 0
KDC1 172205Z 19002KT 18/01 A3014 RMK A01 T01760006  RH  032%=      5-min Rain = 0
KDC1 172206Z 22001KT 18/00 A3014 RMK A01 T01770004  RH  031%=      5-min Rain = 0
KDC1 172207Z 19002KT 18/00 A3014 RMK A01 T01790004  RH  031%=      5-min Rain = 0
KDC1 172208Z 18003KT 18/00 A3014 RMK A01 T01800003  RH  030%=      5-min Rain = 0
KDC1 172209Z 18005KT 18/01 A3014 RMK A01 T01800008  RH  031%=      5-min Rain = 0
KDC1 172210Z 18004KT 18/01 A3014 RMK A01 T01790006  RH  031%=      5-min Rain = 0
KDC1 172211Z 19003KT 18/01 A3014 RMK A01 T01780007  RH  031%=      5-min Rain = 0
KDC1 172212Z 19004KT 18/01 A3014 RMK A01 T01770005  RH  031%=      5-min Rain = 0
KDC1 172213Z 20002KT 18/00 A3014 RMK A01 T01760001  RH  031%=      5-min Rain = 0
KDC1 172214Z 21002KT 18/M00 A3014 RMK A01 T01761001  RH  030%=      5-min Rain = 0
KDC1 172215Z 20001KT 18/M00 A3013 RMK A01 T01761001  RH  030%=      5-min Rain = 0
KDC1 172216Z 18001KT 18/00 A3013 RMK A01 T01760001  RH  031%=      5-min Rain = 0
KDC1 172217Z 15000KT 18/00 A3013 RMK A01 T01770001  RH  030%=      5-min Rain = 0
KDC1 172218Z 16001KT 18/01 A3013 RMK A01 T01770007  RH  032%=      5-min Rain = 0
KDC1 172219Z 16002KT 18/02 A3013 RMK A01 T01770015  RH  034%=      5-min Rain = 0
KDC1 172220Z 17003KT 18/02 A3014 RMK A01 T01760016  RH  034%=      5-min Rain = 0
KDC1 172221Z 18003KT 18/01 A3014 RMK A01 T01750013  RH  034%=      5-min Rain = 0
KDC1 172222Z 16003KT 17/01 A3014 RMK A01 T01740012  RH  034%=      5-min Rain = 0
KDC1 172223Z 17004KT 17/02 A3013 RMK A01 T01730018  RH  035%=      5-min Rain = 0
KDC1 172224Z 17005KT 17/01 A3013 RMK A01 T01720010  RH  034%=      5-min Rain = 0
KDC1 172225Z 16005KT 17/01 A3013 RMK A01 T01710012  RH  034%=      5-min Rain = 0
KDC1 172226Z 17003KT 17/02 A3013 RMK A01 T01700017  RH  036%=      5-min Rain = 0
KDC1 172227Z 17004KT 17/02 A3013 RMK A01 T01680017  RH  036%=      5-min Rain = 0
KDC1 172228Z 17004KT 17/02 A3014 RMK A01 T01670018  RH  037%=      5-min Rain = 0
KDC1 172229Z 17004KT 17/02 A3014 RMK A01 T01660016  RH  036%=      5-min Rain = 0
KDC1 172230Z 16003KT 17/02 A3014 RMK A01 T01650017  RH  037%=      5-min Rain = 0
KDC1 172231Z 16004KT 16/02 A3014 RMK A01 T01640016  RH  037%=      5-min Rain = 0
KDC1 172232Z 16005KT 16/01 A3014 RMK A01 T01630013  RH  036%=      5-min Rain = 0
KDC1 172233Z 16004KT 16/02 A3014 RMK A01 T01620016  RH  037%=      5-min Rain = 0
KDC1 172234Z 15005KT 16/02 A3014 RMK A01 T01600017  RH  038%=      5-min Rain = 0
KDC1 172235Z 16005KT 16/02 A3014 RMK A01 T01580019  RH  039%=      5-min Rain = 0
KDC1 172236Z 16004KT 16/02 A3014 RMK A01 T01570018  RH  039%=      5-min Rain = 0
KDC1 172237Z 16005KT 16/02 A3014 RMK A01 T01560019  RH  040%=      5-min Rain = 0
KDC1 172238Z 16004KT 16/02 A3014 RMK A01 T01550020  RH  040%=      5-min Rain = 0
KDC1 172239Z 15004KT 15/02 A3014 RMK A01 T01540018  RH  040%=      5-min Rain = 0
KDC1 172240Z 15004KT 15/02 A3014 RMK A01 T01530021  RH  041%=      5-min Rain = 0
KDC1 172241Z 15003KT 15/02 A3014 RMK A01 T01520020  RH  041%=      5-min Rain = 0
KDC1 172242Z 15003KT 15/02 A3014 RMK A01 T01520019  RH  041%=      5-min Rain = 0
KDC1 172243Z 15003KT 15/02 A3014 RMK A01 T01510021  RH  041%=      5-min Rain = 0
KDC1 172244Z 14003KT 15/02 A3014 RMK A01 T01510019  RH  041%=      5-min Rain = 0
KDC1 172245Z 15002KT 15/02 A3014 RMK A01 T01520020  RH  041%=      5-min Rain = 0
KDC1 172246Z 16002KT 15/02 A3014 RMK A01 T01520020  RH  041%=      5-min Rain = 0
KDC1 172247Z 16002KT 15/02 A3013 RMK A01 T01510019  RH  041%=      5-min Rain = 0
KDC1 172248Z 17002KT 15/02 A3013 RMK A01 T01520019  RH  041%=      5-min Rain = 0
KDC1 172249Z 16003KT 15/02 A3014 RMK A01 T01520019  RH  041%=      5-min Rain = 0
KDC1 172250Z 16003KT 15/02 A3014 RMK A01 T01520019  RH  041%=      5-min Rain = 0
KDC1 172251Z 16003KT 15/02 A3014 RMK A01 T01520019  RH  041%=      5-min Rain = 0
KDC1 172252Z 15003KT 15/02 A3014 RMK A01 T01510018  RH  041%=      5-min Rain = 0
KDC1 172253Z 15003KT 15/02 A3014 RMK A01 T01510018  RH  041%=      5-min Rain = 0
KDC1 172254Z 15004KT 15/01 A3014 RMK A01 T01500014  RH  040%=      5-min Rain = 0
KDC1 172255Z 15004KT 15/01 A3014 RMK A01 T01510013  RH  039%=      5-min Rain = 0
KDC1 172256Z 16004KT 15/01 A3014 RMK A01 T01510014  RH  039%=      5-min Rain = 0
KDC1 172257Z 16003KT 15/01 A3014 RMK A01 T01510010  RH  039%=      5-min Rain = 0
KDC1 172258Z 17003KT 15/01 A3014 RMK A01 T01510011  RH  039%=      5-min Rain = 0
KDC1 172259Z 17002KT 15/01 A3014 RMK A01 T01510011  RH  038%=      5-min Rain = 0
KDC1 172300Z 17002KT 15/01 A3014 RMK A01 T01510011  RH  038%=      5-min Rain = 0
KDC1 172301Z 17002KT 15/01 A3014 RMK A01 T01510010  RH  038%=      5-min Rain = 0
KDC1 172302Z 17002KT 15/01 A3014 RMK A01 T01510008  RH  038%=      5-min Rain = 0
KDC1 172303Z 16003KT 15/01 A3014 RMK A01 T01520008  RH  038%=      5-min Rain = 0
KDC1 172304Z 16003KT 15/01 A3014 RMK A01 T01520008  RH  038%=      5-min Rain = 0
KDC1 172305Z 17003KT 15/01 A3014 RMK A01 T01530009  RH  038%=      5-min Rain = 0
KDC1 172306Z 17003KT 15/01 A3014 RMK A01 T01520009  RH  038%=      5-min Rain = 0
KDC1 172307Z 17002KT 15/01 A3014 RMK A01 T01520011  RH  038%=      5-min Rain = 0
KDC1 172308Z 17003KT 15/01 A3014 RMK A01 T01510012  RH  039%=      5-min Rain = 0
KDC1 172309Z 17002KT 15/01 A3014 RMK A01 T01510011  RH  039%=      5-min Rain = 0
KDC1 172310Z 16003KT 15/01 A3014 RMK A01 T01500010  RH  039%=      5-min Rain = 0
KDC1 172311Z 16004KT 15/01 A3014 RMK A01 T01510011  RH  039%=      5-min Rain = 0
KDC1 172312Z 17003KT 15/02 A3014 RMK A01 T01510015  RH  040%=      5-min Rain = 0
KDC1 172313Z 16002KT 15/02 A3014 RMK A01 T01500016  RH  040%=      5-min Rain = 0
KDC1 172314Z 17003KT 15/02 A3014 RMK A01 T01490017  RH  041%=      5-min Rain = 0
KDC1 172315Z 17003KT 15/02 A3014 RMK A01 T01480015  RH  041%=      5-min Rain = 0
KDC1 172316Z 17002KT 15/01 A3013 RMK A01 T01470014  RH  040%=      5-min Rain = 0
KDC1 172317Z 17003KT 15/01 A3013 RMK A01 T01470014  RH  040%=      5-min Rain = 0
KDC1 172318Z 17003KT 15/01 A3013 RMK A01 T01470014  RH  041%=      5-min Rain = 0
KDC1 172319Z 17003KT 15/02 A3013 RMK A01 T01460015  RH  041%=      5-min Rain = 0
KDC1 172320Z 16003KT 15/02 A3013 RMK A01 T01450016  RH  041%=      5-min Rain = 0
KDC1 172321Z 16003KT 15/01 A3014 RMK A01 T01450014  RH  041%=      5-min Rain = 0
KDC1 172322Z 16004KT 14/01 A3014 RMK A01 T01440012  RH  041%=      5-min Rain = 0
KDC1 172323Z 16004KT 14/01 A3013 RMK A01 T01440014  RH  041%=      5-min Rain = 0
KDC1 172324Z 16004KT 14/01 A3013 RMK A01 T01440013  RH  041%=      5-min Rain = 0
KDC1 172325Z 15003KT 14/02 A3013 RMK A01 T01430017  RH  042%=      5-min Rain = 0
KDC1 172326Z 15003KT 14/02 A3013 RMK A01 T01410022  RH  045%=      5-min Rain = 0
KDC1 172327Z 16003KT 14/02 A3013 RMK A01 T01380024  RH  046%=      5-min Rain = 0
KDC1 172328Z 15004KT 14/02 A3013 RMK A01 T01360023  RH  047%=      5-min Rain = 0
KDC1 172329Z 15004KT 13/02 A3013 RMK A01 T01340024  RH  047%=      5-min Rain = 0
KDC1 172330Z 15004KT 13/02 A3013 RMK A01 T01330023  RH  047%=      5-min Rain = 0
KDC1 172331Z 14004KT 13/02 A3013 RMK A01 T01320023  RH  047%=      5-min Rain = 0
KDC1 172332Z 15004KT 13/02 A3013 RMK A01 T01320023  RH  048%=      5-min Rain = 0
KDC1 172333Z 14004KT 13/02 A3013 RMK A01 T01320023  RH  048%=      5-min Rain = 0
KDC1 172334Z 15004KT 13/02 A3013 RMK A01 T01310022  RH  048%=      5-min Rain = 0
KDC1 172335Z 15004KT 13/02 A3013 RMK A01 T01310020  RH  047%=      5-min Rain = 0
KDC1 172336Z 15005KT 13/02 A3013 RMK A01 T01330018  RH  046%=      5-min Rain = 0
KDC1 172337Z 15004KT 14/02 A3013 RMK A01 T01350015  RH  044%=      5-min Rain = 0
KDC1 172338Z 15004KT 14/01 A3013 RMK A01 T01380014  RH  043%=      5-min Rain = 0
KDC1 172339Z 15004KT 14/01 A3013 RMK A01 T01400013  RH  042%=      5-min Rain = 0
KDC1 172340Z 15004KT 14/01 A3013 RMK A01 T01410011  RH  041%=      5-min Rain = 0
KDC1 172341Z 15004KT 14/01 A3013 RMK A01 T01410011  RH  041%=      5-min Rain = 0
KDC1 172342Z 15004KT 14/01 A3013 RMK A01 T01410010  RH  041%=      5-min Rain = 0
KDC1 172343Z 16004KT 14/01 A3013 RMK A01 T01420009  RH  040%=      5-min Rain = 0
KDC1 172344Z 16004KT 14/01 A3013 RMK A01 T01430010  RH  040%=      5-min Rain = 0
KDC1 172345Z 16004KT 14/01 A3013 RMK A01 T01420009  RH  040%=      5-min Rain = 0
KDC1 172346Z 16005KT 14/01 A3013 RMK A01 T01420008  RH  040%=      5-min Rain = 0
KDC1 172347Z 16004KT 14/01 A3013 RMK A01 T01420007  RH  040%=      5-min Rain = 0
KDC1 172348Z 16004KT 14/01 A3013 RMK A01 T01420008  RH  040%=      5-min Rain = 0
KDC1 172349Z 16004KT 14/01 A3013 RMK A01 T01420007  RH  040%=      5-min Rain = 0
KDC1 172350Z 15004KT 14/01 A3013 RMK A01 T01420006  RH  039%=      5-min Rain = 0
KDC1 172351Z 15003KT 14/01 A3013 RMK A01 T01420006  RH  039%=      5-min Rain = 0
KDC1 172352Z 15004KT 14/01 A3013 RMK A01 T01420006  RH  040%=      5-min Rain = 0
KDC1 172353Z 15004KT 14/01 A3013 RMK A01 T01410005  RH  039%=      5-min Rain = 0
KDC1 172354Z 15004KT 14/00 A3013 RMK A01 T01400004  RH  039%=      5-min Rain = 0
KDC1 172355Z 15004KT 14/00 A3013 RMK A01 T01400004  RH  039%=      5-min Rain = 0
KDC1 172356Z 15004KT 14/00 A3013 RMK A01 T01400004  RH  039%=      5-min Rain = 0
KDC1 172357Z 16003KT 14/00 A3013 RMK A01 T01390003  RH  039%=      5-min Rain = 0
KDC1 172358Z 15004KT 14/00 A3013 RMK A01 T01390003  RH  039%=      5-min Rain = 0
KDC1 172359Z 15004KT 14/00 A3013 RMK A01 T01380003  RH  039%=      5-min Rain = 0
KDC1 180000Z 15004KT 14/00 A3013 RMK A01 T01380003  RH  040%=      5-min Rain = 0
KDC1 180001Z 15004KT 14/00 A3013 RMK A01 T01380003  RH  040%=      5-min Rain = 0
KDC1 180002Z 16004KT 14/00 A3013 RMK A01 T01380003  RH  040%=      5-min Rain = 0
KDC1 180003Z 16004KT 14/00 A3013 RMK A01 T01380003  RH  040%=      5-min Rain = 0
KDC1 180004Z 16004KT 14/00 A3013 RMK A01 T01380002  RH  039%=      5-min Rain = 0
KDC1 180005Z 16004KT 14/00 A3013 RMK A01 T01370002  RH  040%=      5-min Rain = 0
KDC1 180006Z 17003KT 14/00 A3013 RMK A01 T01360003  RH  040%=      5-min Rain = 0
KDC1 180007Z 17003KT 13/00 A3013 RMK A01 T01340003  RH  041%=      5-min Rain = 0
KDC1 180008Z 17002KT 13/00 A3013 RMK A01 T01320003  RH  041%=      5-min Rain = 0
KDC1 180009Z 18003KT 13/00 A3013 RMK A01 T01310004  RH  042%=      5-min Rain = 0
KDC1 180010Z 18002KT 13/01 A3013 RMK A01 T01290009  RH  044%=      5-min Rain = 0
KDC1 180011Z 18002KT 13/01 A3013 RMK A01 T01270011  RH  045%=      5-min Rain = 0
KDC1 180012Z 18002KT 13/01 A3013 RMK A01 T01250014  RH  047%=      5-min Rain = 0
KDC1 180013Z 18002KT 12/02 A3013 RMK A01 T01230016  RH  048%=      5-min Rain = 0
KDC1 180014Z 18002KT 12/02 A3013 RMK A01 T01200021  RH  051%=      5-min Rain = 0
KDC1 180015Z 18002KT 11/02 A3013 RMK A01 T01140021  RH  053%=      5-min Rain = 0
KDC1 180016Z 17002KT 11/02 A3013 RMK A01 T01120021  RH  054%=      5-min Rain = 0
KDC1 180017Z 17002KT 11/02 A3013 RMK A01 T01110019  RH  053%=      5-min Rain = 0
KDC1 180018Z 17003KT 11/02 A3013 RMK A01 T01120019  RH  053%=      5-min Rain = 0
KDC1 180019Z 17003KT 11/02 A3013 RMK A01 T01120020  RH  053%=      5-min Rain = 0
KDC1 180020Z 18002KT 11/02 A3013 RMK A01 T01120021  RH  054%=      5-min Rain = 0
KDC1 180021Z 19002KT 11/02 A3013 RMK A01 T01110023  RH  055%=      5-min Rain = 0
KDC1 180022Z 18002KT 11/02 A3013 RMK A01 T01090023  RH  055%=      5-min Rain = 0
KDC1 180023Z 18002KT 11/02 A3013 RMK A01 T01080022  RH  055%=      5-min Rain = 0
KDC1 180024Z 18002KT 11/02 A3013 RMK A01 T01070022  RH  056%=      5-min Rain = 0
KDC1 180025Z 18002KT 11/02 A3013 RMK A01 T01060022  RH  056%=      5-min Rain = 0
KDC1 180026Z 18002KT 11/02 A3013 RMK A01 T01050022  RH  056%=      5-min Rain = 0
KDC1 180027Z 18002KT 10/02 A3013 RMK A01 T01040022  RH  057%=      5-min Rain = 0
KDC1 180028Z 17002KT 10/02 A3013 RMK A01 T01040021  RH  057%=      5-min Rain = 0
KDC1 180029Z 17002KT 10/02 A3014 RMK A01 T01030021  RH  057%=      5-min Rain = 0
KDC1 180030Z 17003KT 10/02 A3014 RMK A01 T01030019  RH  056%=      5-min Rain = 0
KDC1 180031Z 17003KT 10/02 A3014 RMK A01 T01040019  RH  056%=      5-min Rain = 0
KDC1 180032Z 17002KT 11/02 A3014 RMK A01 T01050020  RH  055%=      5-min Rain = 0
KDC1 180033Z 18003KT 11/02 A3014 RMK A01 T01050019  RH  055%=      5-min Rain = 0
KDC1 180034Z 18003KT 11/02 A3014 RMK A01 T01060018  RH  055%=      5-min Rain = 0
KDC1 180035Z 18003KT 11/02 A3014 RMK A01 T01050017  RH  054%=      5-min Rain = 0
KDC1 180036Z 18003KT 11/02 A3014 RMK A01 T01050017  RH  054%=      5-min Rain = 0
KDC1 180037Z 18002KT 10/02 A3014 RMK A01 T01040017  RH  055%=      5-min Rain = 0
KDC1 180038Z 18003KT 10/02 A3014 RMK A01 T01020016  RH  055%=      5-min Rain = 0
KDC1 180039Z 18003KT 10/02 A3014 RMK A01 T01010015  RH  055%=      5-min Rain = 0
KDC1 180040Z 18003KT 10/02 A3014 RMK A01 T01010015  RH  055%=      5-min Rain = 0
KDC1 180041Z 18003KT 10/02 A3014 RMK A01 T01010015  RH  055%=      5-min Rain = 0
KDC1 180042Z 18003KT 10/01 A3014 RMK A01 T01010014  RH  054%=      5-min Rain = 0
KDC1 180043Z 19003KT 10/01 A3014 RMK A01 T01010014  RH  055%=      5-min Rain = 0
KDC1 180044Z 19003KT 10/01 A3014 RMK A01 T01000013  RH  055%=      5-min Rain = 0
KDC1 180045Z 19003KT 10/01 A3014 RMK A01 T00990013  RH  055%=      5-min Rain = 0
KDC1 180046Z 19003KT 10/01 A3014 RMK A01 T00990013  RH  055%=      5-min Rain = 0
KDC1 180047Z 19002KT 10/01 A3014 RMK A01 T01000012  RH  054%=      5-min Rain = 0
KDC1 180048Z 20002KT 10/01 A3014 RMK A01 T01000012  RH  054%=      5-min Rain = 0
KDC1 180049Z 20002KT 10/01 A3014 RMK A01 T01000011  RH  054%=      5-min Rain = 0
KDC1 180050Z 20002KT 10/01 A3014 RMK A01 T01010012  RH  054%=      5-min Rain = 0
KDC1 180051Z 20003KT 10/01 A3014 RMK A01 T01020011  RH  053%=      5-min Rain = 0
KDC1 180052Z 20003KT 10/01 A3014 RMK A01 T01020011  RH  053%=      5-min Rain = 0
KDC1 180053Z 20003KT 10/01 A3014 RMK A01 T01030011  RH  053%=      5-min Rain = 0
KDC1 180054Z 20002KT 10/01 A3014 RMK A01 T01020011  RH  053%=      5-min Rain = 0
KDC1 180055Z 20003KT 10/01 A3014 RMK A01 T01010011  RH  054%=      5-min Rain = 0
KDC1 180056Z 20003KT 10/01 A3014 RMK A01 T00990011  RH  054%=      5-min Rain = 0
KDC1 180057Z 20002KT 10/01 A3014 RMK A01 T00980010  RH  054%=      5-min Rain = 0
KDC1 180058Z 20003KT 10/01 A3014 RMK A01 T00980010  RH  055%=      5-min Rain = 0
KDC1 180059Z 20003KT 10/01 A3014 RMK A01 T00970009  RH  054%=      5-min Rain = 0
KDC1 180100Z 20002KT 10/01 A3014 RMK A01 T00980009  RH  054%=      5-min Rain = 0
KDC1 180101Z 20002KT 10/01 A3014 RMK A01 T00980009  RH  054%=      5-min Rain = 0
KDC1 180102Z 20002KT 10/01 A3014 RMK A01 T00980009  RH  054%=      5-min Rain = 0
KDC1 180103Z 20002KT 10/01 A3014 RMK A01 T00980009  RH  054%=      5-min Rain = 0
KDC1 180104Z 20002KT 10/01 A3014 RMK A01 T00970009  RH  054%=      5-min Rain = 0
KDC1 180105Z 21002KT 10/01 A3014 RMK A01 T00950009  RH  055%=      5-min Rain = 0
KDC1 180106Z 21003KT 09/01 A3014 RMK A01 T00930009  RH  056%=      5-min Rain = 0
KDC1 180107Z 22004KT 09/01 A3014 RMK A01 T00900008  RH  056%=      5-min Rain = 0
KDC1 180108Z 22004KT 09/01 A3014 RMK A01 T00880008  RH  057%=      5-min Rain = 0
KDC1 180109Z 22005KT 09/01 A3014 RMK A01 T00860009  RH  058%=      5-min Rain = 0
KDC1 180110Z 23005KT 09/01 A3014 RMK A01 T00860009  RH  058%=      5-min Rain = 0
KDC1 180111Z 23005KT 09/01 A3014 RMK A01 T00870009  RH  058%=      5-min Rain = 0
KDC1 180112Z 23005KT 09/01 A3014 RMK A01 T00880009  RH  058%=      5-min Rain = 0
KDC1 180113Z 23005KT 09/01 A3014 RMK A01 T00870009  RH  058%=      5-min Rain = 0
KDC1 180114Z 23004KT 09/01 A3014 RMK A01 T00860010  RH  059%=      5-min Rain = 0
KDC1 180115Z 23005KT 09/01 A3014 RMK A01 T00850011  RH  059%=      5-min Rain = 0
KDC1 180116Z 24005KT 09/01 A3014 RMK A01 T00850010  RH  059%=      5-min Rain = 0
KDC1 180117Z 23005KT 09/01 A3014 RMK A01 T00850010  RH  059%=      5-min Rain = 0
KDC1 180118Z 23004KT 09/01 A3014 RMK A01 T00850009  RH  059%=      5-min Rain = 0
KDC1 180119Z 23004KT 09/01 A3014 RMK A01 T00850008  RH  058%=      5-min Rain = 0
KDC1 180120Z 23004KT 09/01 A3014 RMK A01 T00860009  RH  058%=      5-min Rain = 0
KDC1 180121Z 23005KT 09/01 A3014 RMK A01 T00860009  RH  058%=      5-min Rain = 0
KDC1 180122Z 23005KT 09/01 A3014 RMK A01 T00860008  RH  058%=      5-min Rain = 0
KDC1 180123Z 23005KT 09/01 A3014 RMK A01 T00850008  RH  058%=      5-min Rain = 0
KDC1 180124Z 23005KT 09/01 A3014 RMK A01 T00860007  RH  058%=      5-min Rain = 0
KDC1 180125Z 23004KT 09/01 A3014 RMK A01 T00870007  RH  057%=      5-min Rain = 0
KDC1 180126Z 23005KT 09/01 A3014 RMK A01 T00880007  RH  057%=      5-min Rain = 0
KDC1 180127Z 23005KT 09/01 A3014 RMK A01 T00870006  RH  057%=      5-min Rain = 0
KDC1 180128Z 24005KT 09/01 A3014 RMK A01 T00880006  RH  057%=      5-min Rain = 0
KDC1 180129Z 24005KT 09/01 A3014 RMK A01 T00860007  RH  057%=      5-min Rain = 0
KDC1 180130Z 24006KT 08/01 A3014 RMK A01 T00840007  RH  058%=      5-min Rain = 0
KDC1 180131Z 24006KT 08/01 A3014 RMK A01 T00830007  RH  059%=      5-min Rain = 0
KDC1 180132Z 24006KT 08/01 A3014 RMK A01 T00820006  RH  059%=      5-min Rain = 0
KDC1 180133Z 25005KT 08/01 A3014 RMK A01 T00830007  RH  058%=      5-min Rain = 0
KDC1 180134Z 25005KT 08/01 A3014 RMK A01 T00830006  RH  058%=      5-min Rain = 0
KDC1 180135Z 25005KT 08/01 A3014 RMK A01 T00830006  RH  058%=      5-min Rain = 0
KDC1 180136Z 25005KT 08/01 A3014 RMK A01 T00820006  RH  059%=      5-min Rain = 0
KDC1 180137Z 25005KT 08/01 A3014 RMK A01 T00810006  RH  059%=      5-min Rain = 0
KDC1 180138Z 25005KT 08/01 A3014 RMK A01 T00810005  RH  059%=      5-min Rain = 0
KDC1 180139Z 25005KT 08/01 A3014 RMK A01 T00810005  RH  059%=      5-min Rain = 0
KDC1 180140Z 24005KT 08/01 A3014 RMK A01 T00820005  RH  058%=      5-min Rain = 0
KDC1 180141Z 24005KT 09/01 A3014 RMK A01 T00850005  RH  057%=      5-min Rain = 0
KDC1 180142Z 24005KT 09/01 A3014 RMK A01 T00870005  RH  056%=      5-min Rain = 0
KDC1 180143Z 24005KT 09/00 A3014 RMK A01 T00880004  RH  056%=      5-min Rain = 0
KDC1 180144Z 24005KT 09/01 A3014 RMK A01 T00890005  RH  056%=      5-min Rain = 0
KDC1 180145Z 25005KT 09/01 A3014 RMK A01 T00880005  RH  056%=      5-min Rain = 0
KDC1 180146Z 25005KT 09/01 A3014 RMK A01 T00860006  RH  057%=      5-min Rain = 0
KDC1 180147Z 25005KT 08/01 A3014 RMK A01 T00840005  RH  058%=      5-min Rain = 0
KDC1 180148Z 26005KT 08/01 A3014 RMK A01 T00830005  RH  058%=      5-min Rain = 0
KDC1 180149Z 26004KT 08/01 A3014 RMK A01 T00810005  RH  059%=      5-min Rain = 0
KDC1 180150Z 26004KT 08/01 A3014 RMK A01 T00790005  RH  060%=      5-min Rain = 0
KDC1 180151Z 26005KT 08/00 A3014 RMK A01 T00760002  RH  059%=      5-min Rain = 0
KDC1 180152Z 26005KT 07/00 A3014 RMK A01 T00720001  RH  060%=      5-min Rain = 0
KDC1 180153Z 27005KT 07/00 A3014 RMK A01 T00690000  RH  061%=      5-min Rain = 0
KDC1 180154Z 27006KT 07/00 A3014 RMK A01 T00660001  RH  063%=      5-min Rain = 0
KDC1 180155Z 27005KT 06/00 A3014 RMK A01 T00640003  RH  065%=      5-min Rain = 0
KDC1 180156Z 27006KT 06/00 A3014 RMK A01 T00640003  RH  065%=      5-min Rain = 0
KDC1 180157Z 28005KT 06/00 A3014 RMK A01 T00630002  RH  065%=      5-min Rain = 0
KDC1 180158Z 28005KT 06/00 A3014 RMK A01 T00620002  RH  065%=      5-min Rain = 0
KDC1 180159Z 29005KT 06/00 A3014 RMK A01 T00610001  RH  065%=      5-min Rain = 0
KDC1 180200Z 30005KT 06/00 A3014 RMK A01 T00600000  RH  065%=      5-min Rain = 0
KDC1 180201Z 31005KT 06/M00 A3014 RMK A01 T00591002  RH  065%=      5-min Rain = 0
KDC1 180202Z 31005KT 06/M00 A3014 RMK A01 T00571004  RH  065%=      5-min Rain = 0
KDC1 180203Z 31005KT 06/M01 A3014 RMK A01 T00551005  RH  065%=      5-min Rain = 0
KDC1 180204Z 31005KT 06/M00 A3014 RMK A01 T00551004  RH  066%=      5-min Rain = 0
KDC1 180205Z 31005KT 06/M00 A3014 RMK A01 T00551003  RH  066%=      5-min Rain = 0
KDC1 180206Z 31005KT 06/M00 A3014 RMK A01 T00551003  RH  066%=      5-min Rain = 0
KDC1 180207Z 31005KT 06/M00 A3014 RMK A01 T00561003  RH  066%=      5-min Rain = 0
KDC1 180208Z 31006KT 06/M00 A3014 RMK A01 T00571002  RH  066%=      5-min Rain = 0
KDC1 180209Z 31006KT 06/00 A3014 RMK A01 T005900-0  RH  066%=      5-min Rain = 0
KDC1 180210Z 31007KT 06/00 A3014 RMK A01 T00610000  RH  065%=      5-min Rain = 0
KDC1 180211Z 31006KT 06/00 A3014 RMK A01 T00610001  RH  065%=      5-min Rain = 0
KDC1 180212Z 31006KT 06/00 A3015 RMK A01 T005900-0  RH  065%=      5-min Rain = 0
KDC1 180213Z 31006KT 06/M00 A3015 RMK A01 T00571002  RH  066%=      5-min Rain = 0
KDC1 180214Z 32005KT 06/M00 A3015 RMK A01 T00561002  RH  066%=      5-min Rain = 0
KDC1 180215Z 32004KT 06/M00 A3015 RMK A01 T00561002  RH  066%=      5-min Rain = 0
KDC1 180216Z 32004KT 06/M00 A3015 RMK A01 T00571002  RH  066%=      5-min Rain = 0
KDC1 180217Z 32004KT 06/M00 A3015 RMK A01 T00581001  RH  066%=      5-min Rain = 0
KDC1 180218Z 32003KT 06/M00 A3014 RMK A01 T00591001  RH  065%=      5-min Rain = 0
KDC1 180219Z 32002KT 06/M00 A3014 RMK A01 T00601001  RH  065%=      5-min Rain = 0
KDC1 180220Z 31002KT 06/M00 A3014 RMK A01 T00601001  RH  065%=      5-min Rain = 0
KDC1 180221Z 30003KT 06/M00 A3014 RMK A01 T00601003  RH  064%=      5-min Rain = 0
KDC1 180222Z 30003KT 06/M00 A3014 RMK A01 T00601003  RH  064%=      5-min Rain = 0
KDC1 180223Z 30004KT 06/M00 A3014 RMK A01 T00601003  RH  064%=      5-min Rain = 0
KDC1 180224Z 31003KT 06/M00 A3014 RMK A01 T00601003  RH  064%=      5-min Rain = 0
KDC1 180225Z 30003KT 06/M00 A3014 RMK A01 T00591004  RH  064%=      5-min Rain = 0
KDC1 180226Z 30003KT 06/M00 A3014 RMK A01 T00581004  RH  064%=      5-min Rain = 0
KDC1 180227Z 30003KT 06/M00 A3014 RMK A01 T00581003  RH  065%=      5-min Rain = 0
KDC1 180228Z 30003KT 06/M00 A3014 RMK A01 T00591002  RH  065%=      5-min Rain = 0
KDC1 180229Z 32003KT 06/M00 A3015 RMK A01 T00591002  RH  065%=      5-min Rain = 0
KDC1 180230Z 32003KT 06/M00 A3015 RMK A01 T00591004  RH  064%=      5-min Rain = 0
KDC1 180231Z 34002KT 06/M01 A3015 RMK A01 T00571006  RH  064%=      5-min Rain = 0
KDC1 180232Z 35003KT 06/M00 A3015 RMK A01 T00551004  RH  066%=      5-min Rain = 0
KDC1 180233Z 35002KT 05/M01 A3015 RMK A01 T00531005  RH  066%=      5-min Rain = 0
KDC1 180234Z 33003KT 05/M01 A3015 RMK A01 T00511005  RH  067%=      5-min Rain = 0
KDC1 180235Z 33003KT 05/M01 A3015 RMK A01 T00531005  RH  067%=      5-min Rain = 0
KDC1 180236Z 33004KT 06/M00 A3015 RMK A01 T00551004  RH  066%=      5-min Rain = 0
KDC1 180237Z 33005KT 06/M01 A3015 RMK A01 T00551006  RH  065%=      5-min Rain = 0
KDC1 180238Z 34005KT 06/M01 A3015 RMK A01 T00551006  RH  064%=      5-min Rain = 0
KDC1 180239Z 34005KT 05/M01 A3015 RMK A01 T00541007  RH  065%=      5-min Rain = 0
KDC1 180240Z 34004KT 05/M01 A3015 RMK A01 T00521009  RH  065%=      5-min Rain = 0
KDC1 180241Z 34004KT 05/M01 A3015 RMK A01 T00511011  RH  065%=      5-min Rain = 0
KDC1 180242Z 34004KT 05/M01 A3015 RMK A01 T00491012  RH  065%=      5-min Rain = 0
KDC1 180243Z 33004KT 05/M01 A3015 RMK A01 T00481012  RH  065%=      5-min Rain = 0
KDC1 180244Z 33004KT 05/M01 A3015 RMK A01 T00481013  RH  065%=      5-min Rain = 0
KDC1 180245Z 33004KT 05/M01 A3015 RMK A01 T00481013  RH  065%=      5-min Rain = 0
KDC1 180246Z 33004KT 05/M01 A3015 RMK A01 T00501012  RH  064%=      5-min Rain = 0
KDC1 180247Z 33004KT 05/M01 A3015 RMK A01 T00511012  RH  064%=      5-min Rain = 0
KDC1 180248Z 33004KT 05/M01 A3015 RMK A01 T00521012  RH  063%=      5-min Rain = 0
KDC1 180249Z 32004KT 05/M01 A3015 RMK A01 T00521013  RH  063%=      5-min Rain = 0
KDC1 180250Z 32005KT 05/M01 A3015 RMK A01 T00511013  RH  063%=      5-min Rain = 0
KDC1 180251Z 32006KT 05/M01 A3015 RMK A01 T00501012  RH  064%=      5-min Rain = 0
KDC1 180252Z 33005KT 05/M01 A3015 RMK A01 T00481014  RH  064%=      5-min Rain = 0
KDC1 180253Z 33005KT 05/M01 A3015 RMK A01 T00471014  RH  064%=      5-min Rain = 0
KDC1 180254Z 33006KT 05/M01 A3015 RMK A01 T00471014  RH  065%=      5-min Rain = 0
KDC1 180255Z 32006KT 05/M01 A3015 RMK A01 T00471014  RH  065%=      5-min Rain = 0
KDC1 180256Z 32006KT 05/M01 A3015 RMK A01 T00471014  RH  065%=      5-min Rain = 0
KDC1 180257Z 32005KT 05/M01 A3015 RMK A01 T00481013  RH  065%=      5-min Rain = 0
KDC1 180258Z 32004KT 05/M01 A3015 RMK A01 T00491012  RH  065%=      5-min Rain = 0
KDC1 180259Z 32004KT 05/M01 A3015 RMK A01 T00511012  RH  064%=      5-min Rain = 0
KDC1 180300Z 32004KT 05/M01 A3015 RMK A01 T00531011  RH  064%=      5-min Rain = 0
KDC1 180301Z 32004KT 05/M01 A3015 RMK A01 T00541010  RH  063%=      5-min Rain = 0
KDC1 180302Z 31004KT 06/M01 A3015 RMK A01 T00561010  RH  063%=      5-min Rain = 0
KDC1 180303Z 32004KT 06/M01 A3015 RMK A01 T00581009  RH  062%=      5-min Rain = 0
KDC1 180304Z 31003KT 06/M01 A3016 RMK A01 T00591009  RH  061%=      5-min Rain = 0
KDC1 180305Z 28004KT 06/M01 A3016 RMK A01 T00631007  RH  061%=      5-min Rain = 0
KDC1 180306Z 29004KT 07/M01 A3016 RMK A01 T00671005  RH  060%=      5-min Rain = 0
KDC1 180307Z 29004KT 07/M00 A3016 RMK A01 T00711004  RH  059%=      5-min Rain = 0
KDC1 180308Z 30004KT 07/M00 A3016 RMK A01 T00721004  RH  058%=      5-min Rain = 0
KDC1 180309Z 30004KT 07/M00 A3015 RMK A01 T00731004  RH  058%=      5-min Rain = 0
KDC1 180310Z 30004KT 07/M00 A3016 RMK A01 T00731003  RH  058%=      5-min Rain = 0
KDC1 180311Z 30004KT 07/M00 A3016 RMK A01 T00731002  RH  059%=      5-min Rain = 0
KDC1 180312Z 29004KT 07/M00 A3016 RMK A01 T00701002  RH  060%=      5-min Rain = 0
KDC1 180313Z 29004KT 07/M00 A3016 RMK A01 T00671002  RH  061%=      5-min Rain = 0
KDC1 180314Z 29004KT 06/M00 A3016 RMK A01 T00641003  RH  062%=      5-min Rain = 0
KDC1 180315Z 29004KT 06/M00 A3016 RMK A01 T00631003  RH  063%=      5-min Rain = 0
KDC1 180316Z 30003KT 06/M00 A3016 RMK A01 T00631003  RH  063%=      5-min Rain = 0
KDC1 180317Z 30004KT 06/M00 A3016 RMK A01 T00621003  RH  063%=      5-min Rain = 0
KDC1 180318Z 30004KT 06/M00 A3016 RMK A01 T00621003  RH  063%=      5-min Rain = 0
KDC1 180319Z 30004KT 06/M00 A3016 RMK A01 T00611004  RH  063%=      5-min Rain = 0
KDC1 180320Z 30004KT 06/M00 A3016 RMK A01 T00601004  RH  063%=      5-min Rain = 0
KDC1 180321Z 30004KT 06/M00 A3016 RMK A01 T00601004  RH  064%=      5-min Rain = 0
KDC1 180322Z 30004KT 06/M01 A3016 RMK A01 T00591005  RH  064%=      5-min Rain = 0
KDC1 180323Z 30004KT 06/M01 A3016 RMK A01 T00591005  RH  063%=      5-min Rain = 0
KDC1 180324Z 30005KT 06/M01 A3016 RMK A01 T00601005  RH  063%=      5-min Rain = 0
KDC1 180325Z 30005KT 06/M01 A3016 RMK A01 T00591005  RH  063%=      5-min Rain = 0
KDC1 180326Z 30005KT 06/M01 A3016 RMK A01 T00571005  RH  064%=      5-min Rain = 0
KDC1 180327Z 30005KT 05/M01 A3016 RMK A01 T00541006  RH  065%=      5-min Rain = 0
KDC1 180328Z 30005KT 05/M01 A3016 RMK A01 T00511006  RH  067%=      5-min Rain = 0
KDC1 180329Z 29005KT 05/M00 A3016 RMK A01 T00501004  RH  068%=      5-min Rain = 0
KDC1 180330Z 29006KT 05/M00 A3016 RMK A01 T00491004  RH  068%=      5-min Rain = 0
KDC1 180331Z 29006KT 05/M01 A3016 RMK A01 T00481005  RH  069%=      5-min Rain = 0
KDC1 180332Z 30006KT 05/M01 A3016 RMK A01 T00471005  RH  069%=      5-min Rain = 0
KDC1 180333Z 30006KT 05/M01 A3016 RMK A01 T00461006  RH  069%=      5-min Rain = 0
KDC1 180334Z 30006KT 05/M01 A3016 RMK A01 T00461006  RH  069%=      5-min Rain = 0
KDC1 180335Z 30006KT 05/M01 A3016 RMK A01 T00451006  RH  069%=      5-min Rain = 0
KDC1 180336Z 30006KT 05/M01 A3016 RMK A01 T00451006  RH  069%=      5-min Rain = 0
KDC1 180337Z 30005KT 05/M01 A3016 RMK A01 T00451006  RH  069%=      5-min Rain = 0
KDC1 180338Z 30005KT 05/M01 A3016 RMK A01 T00461006  RH  069%=      5-min Rain = 0
KDC1 180339Z 29005KT 05/M01 A3016 RMK A01 T00471006  RH  069%=      5-min Rain = 0
KDC1 180340Z 29006KT 05/M01 A3016 RMK A01 T00491005  RH  068%=      5-min Rain = 0
KDC1 180341Z 29006KT 05/M01 A3016 RMK A01 T00511005  RH  067%=      5-min Rain = 0
KDC1 180342Z 29006KT 05/M01 A3016 RMK A01 T00531005  RH  066%=      5-min Rain = 0
KDC1 180343Z 29006KT 05/M01 A3016 RMK A01 T00521006  RH  066%=      5-min Rain = 0
KDC1 180344Z 29006KT 05/M01 A3016 RMK A01 T00501006  RH  067%=      5-min Rain = 0
KDC1 180345Z 29006KT 05/M01 A3016 RMK A01 T00491006  RH  068%=      5-min Rain = 0
KDC1 180346Z 29006KT 05/M01 A3016 RMK A01 T00481006  RH  068%=      5-min Rain = 0
KDC1 180347Z 28006KT 05/M01 A3016 RMK A01 T00471006  RH  068%=      5-min Rain = 0
KDC1 180348Z 28006KT 05/M01 A3016 RMK A01 T00471006  RH  068%=      5-min Rain = 0
KDC1 180349Z 28006KT 05/M01 A3016 RMK A01 T00481006  RH  068%=      5-min Rain = 0
KDC1 180350Z 28005KT 05/M01 A3016 RMK A01 T00491007  RH  067%=      5-min Rain = 0
KDC1 180351Z 29005KT 05/M01 A3016 RMK A01 T00501007  RH  067%=      5-min Rain = 0
KDC1 180352Z 29005KT 05/M01 A3016 RMK A01 T00491007  RH  067%=      5-min Rain = 0
KDC1 180353Z 29005KT 05/M01 A3016 RMK A01 T00491007  RH  067%=      5-min Rain = 0
KDC1 180354Z 29005KT 05/M01 A3016 RMK A01 T00481007  RH  068%=      5-min Rain = 0
KDC1 180355Z 29005KT 05/M01 A3015 RMK A01 T00471007  RH  068%=      5-min Rain = 0
KDC1 180356Z 29006KT 05/M01 A3015 RMK A01 T00471007  RH  068%=      5-min Rain = 0
KDC1 180357Z 29005KT 05/M01 A3015 RMK A01 T00471007  RH  068%=      5-min Rain = 0
KDC1 180358Z 29005KT 05/M01 A3016 RMK A01 T00471008  RH  067%=      5-min Rain = 0
KDC1 180359Z 29004KT 05/M01 A3016 RMK A01 T00481008  RH  067%=      5-min Rain = 0
KDC1 180400Z 29004KT 05/M01 A3016 RMK A01 T00481008  RH  067%=      5-min Rain = 0
KDC1 180401Z 29005KT 05/M01 A3015 RMK A01 T00451008  RH  068%=      5-min Rain = 0
KDC1 180402Z 29005KT 04/M01 A3015 RMK A01 T00431008  RH  069%=      5-min Rain = 0
KDC1 180403Z 29004KT 04/M01 A3015 RMK A01 T00411008  RH  070%=      5-min Rain = 0
KDC1 180404Z 29004KT 04/M01 A3015 RMK A01 T00401008  RH  071%=      5-min Rain = 0
KDC1 180405Z 29004KT 04/M01 A3016 RMK A01 T00381008  RH  072%=      5-min Rain = 0
KDC1 180406Z 29004KT 04/M01 A3016 RMK A01 T00361009  RH  073%=      5-min Rain = 0
KDC1 180407Z 29004KT 03/M01 A3016 RMK A01 T00341009  RH  073%=      5-min Rain = 0
KDC1 180408Z 29005KT 03/M01 A3016 RMK A01 T00331009  RH  074%=      5-min Rain = 0
KDC1 180409Z 29005KT 03/M01 A3016 RMK A01 T00331008  RH  074%=      5-min Rain = 0
KDC1 180410Z 29005KT 03/M01 A3016 RMK A01 T00331009  RH  074%=      5-min Rain = 0
KDC1 180411Z 29004KT 03/M01 A3015 RMK A01 T00331009  RH  074%=      5-min Rain = 0
KDC1 180412Z 30004KT 03/M01 A3015 RMK A01 T00341009  RH  073%=      5-min Rain = 0
KDC1 180413Z 30004KT 04/M01 A3015 RMK A01 T00351009  RH  073%=      5-min Rain = 0
KDC1 180414Z 30004KT 04/M01 A3015 RMK A01 T00351009  RH  073%=      5-min Rain = 0
KDC1 180415Z 30004KT 04/M01 A3015 RMK A01 T00361009  RH  073%=      5-min Rain = 0
KDC1 180416Z 30004KT 04/M01 A3015 RMK A01 T00361008  RH  073%=      5-min Rain = 0
KDC1 180417Z 29004KT 04/M01 A3015 RMK A01 T00371008  RH  073%=      5-min Rain = 0
KDC1 180418Z 28004KT 04/M01 A3015 RMK A01 T00371008  RH  072%=      5-min Rain = 0
KDC1 180419Z 28005KT 04/M01 A3015 RMK A01 T00381007  RH  073%=      5-min Rain = 0
KDC1 180420Z 29004KT 04/M01 A3016 RMK A01 T00391007  RH  072%=      5-min Rain = 0
KDC1 180421Z 28004KT 04/M01 A3016 RMK A01 T00391008  RH  072%=      5-min Rain = 0
KDC1 180422Z 29003KT 04/M01 A3016 RMK A01 T00391008  RH  072%=      5-min Rain = 0
KDC1 180423Z 28001KT 04/M01 A3016 RMK A01 T00391008  RH  071%=      5-min Rain = 0
KDC1 180424Z 00000KT 04/M01 A3016 RMK A01 T00381009  RH  071%=      5-min Rain = 0
KDC1 180425Z 31001KT 04/M01 A3016 RMK A01 T00361010  RH  072%=      5-min Rain = 0
KDC1 180426Z 32002KT 04/M01 A3015 RMK A01 T00351009  RH  073%=      5-min Rain = 0
KDC1 180427Z 32000KT 03/M01 A3015 RMK A01 T00341009  RH  073%=      5-min Rain = 0
KDC1 180428Z 00000KT 03/M01 A3015 RMK A01 T00341010  RH  073%=      5-min Rain = 0
KDC1 180429Z 31001KT 03/M01 A3015 RMK A01 T00341010  RH  073%=      5-min Rain = 0
KDC1 180430Z 30003KT 03/M01 A3015 RMK A01 T00341009  RH  073%=      5-min Rain = 0
KDC1 180431Z 30001KT 04/M01 A3015 RMK A01 T00351008  RH  074%=      5-min Rain = 0
KDC1 180432Z 31002KT 04/M01 A3015 RMK A01 T00351009  RH  073%=      5-min Rain = 0
KDC1 180433Z 32003KT 04/M01 A3015 RMK A01 T00351009  RH  073%=      5-min Rain = 0
KDC1 180434Z 32003KT 04/M01 A3015 RMK A01 T00351008  RH  073%=      5-min Rain = 0
KDC1 180435Z 31003KT 04/M01 A3015 RMK A01 T00361008  RH  073%=      5-min Rain = 0
KDC1 180436Z 31004KT 04/M01 A3015 RMK A01 T00371008  RH  072%=      5-min Rain = 0
KDC1 180437Z 31004KT 04/M01 A3015 RMK A01 T00381009  RH  072%=      5-min Rain = 0
KDC1 180438Z 31005KT 04/M01 A3015 RMK A01 T00381009  RH  071%=      5-min Rain = 0
KDC1 180439Z 31006KT 04/M01 A3015 RMK A01 T00361011  RH  071%=      5-min Rain = 0
KDC1 180440Z 32005KT 04/M01 A3015 RMK A01 T00351012  RH  072%=      5-min Rain = 0
KDC1 180441Z 32005KT 03/M01 A3015 RMK A01 T00341012  RH  072%=      5-min Rain = 0
KDC1 180442Z 31005KT 03/M01 A3015 RMK A01 T00321014  RH  072%=      5-min Rain = 0
KDC1 180443Z 31005KT 03/M01 A3015 RMK A01 T00321014  RH  072%=      5-min Rain = 0
KDC1 180444Z 30005KT 03/M01 A3015 RMK A01 T00321013  RH  072%=      5-min Rain = 0
KDC1 180445Z 30005KT 03/M01 A3015 RMK A01 T00321013  RH  072%=      5-min Rain = 0
KDC1 180446Z 31006KT 03/M01 A3015 RMK A01 T00331012  RH  073%=      5-min Rain = 0
KDC1 180447Z 31005KT 03/M01 A3015 RMK A01 T00331011  RH  072%=      5-min Rain = 0
KDC1 180448Z 31006KT 03/M01 A3015 RMK A01 T00341012  RH  072%=      5-min Rain = 0
KDC1 180449Z 30006KT 03/M01 A3015 RMK A01 T00341013  RH  072%=      5-min Rain = 0
KDC1 180450Z 30006KT 03/M01 A3015 RMK A01 T00341014  RH  071%=      5-min Rain = 0
KDC1 180451Z 30006KT 04/M01 A3015 RMK A01 T00351014  RH  071%=      5-min Rain = 0
KDC1 180452Z 29007KT 04/M01 A3015 RMK A01 T00361011  RH  071%=      5-min Rain = 0
KDC1 180453Z 28007KT 04/M01 A3015 RMK A01 T00371010  RH  071%=      5-min Rain = 0
KDC1 180454Z 29006KT 04/M01 A3015 RMK A01 T00381011  RH  071%=      5-min Rain = 0
KDC1 180455Z 29006KT 04/M01 A3015 RMK A01 T00381011  RH  071%=      5-min Rain = 0
KDC1 180456Z 29006KT 04/M01 A3014 RMK A01 T00371012  RH  071%=      5-min Rain = 0
KDC1 180457Z 29005KT 04/M01 A3014 RMK A01 T00361012  RH  071%=      5-min Rain = 0
KDC1 180458Z 29006KT 04/M01 A3014 RMK A01 T00361011  RH  071%=      5-min Rain = 0
KDC1 180459Z 30006KT 04/M01 A3014 RMK A01 T00361012  RH  071%=      5-min Rain = 0
KDC1 180500Z 30005KT 04/M01 A3014 RMK A01 T00361011  RH  071%=      5-min Rain = 0
KDC1 180501Z 31006KT 04/M01 A3014 RMK A01 T00361012  RH  071%=      5-min Rain = 0
KDC1 180502Z 31006KT 04/M01 A3014 RMK A01 T00361011  RH  071%=      5-min Rain = 0
KDC1 180503Z 31006KT 04/M01 A3014 RMK A01 T00361011  RH  071%=      5-min Rain = 0
KDC1 180504Z 31005KT 04/M01 A3014 RMK A01 T00361011  RH  071%=      5-min Rain = 0
KDC1 180505Z 30004KT 04/M01 A3014 RMK A01 T00371011  RH  071%=      5-min Rain = 0
KDC1 180506Z 30004KT 04/M01 A3014 RMK A01 T00371011  RH  071%=      5-min Rain = 0
KDC1 180507Z 31004KT 04/M01 A3014 RMK A01 T00371011  RH  071%=      5-min Rain = 0
KDC1 180508Z 32005KT 04/M01 A3014 RMK A01 T00371011  RH  071%=      5-min Rain = 0
KDC1 180509Z 31005KT 04/M01 A3014 RMK A01 T00371011  RH  071%=      5-min Rain = 0
KDC1 180510Z 31005KT 04/M01 A3014 RMK A01 T00371011  RH  071%=      5-min Rain = 0
KDC1 180511Z 32004KT 04/M01 A3014 RMK A01 T00381011  RH  071%=      5-min Rain = 0
KDC1 180512Z 32003KT 04/M01 A3014 RMK A01 T00371011  RH  071%=      5-min Rain = 0
KDC1 180513Z 33003KT 04/M01 A3014 RMK A01 T00371011  RH  071%=      5-min Rain = 0
KDC1 180514Z 35003KT 04/M01 A3014 RMK A01 T00361011  RH  071%=      5-min Rain = 0
KDC1 180515Z 00003KT 04/M01 A3014 RMK A01 T00361013  RH  070%=      5-min Rain = 0
KDC1 180516Z 01003KT 03/M02 A3014 RMK A01 T00341016  RH  070%=      5-min Rain = 0
KDC1 180517Z 36003KT 03/M02 A3014 RMK A01 T00331017  RH  070%=      5-min Rain = 0
KDC1 180518Z 35003KT 03/M02 A3014 RMK A01 T00331017  RH  070%=      5-min Rain = 0
KDC1 180519Z 35004KT 03/M02 A3014 RMK A01 T00331018  RH  069%=      5-min Rain = 0
KDC1 180520Z 34004KT 03/M02 A3015 RMK A01 T00311020  RH  069%=      5-min Rain = 0
KDC1 180521Z 34004KT 03/M02 A3015 RMK A01 T00301019  RH  070%=      5-min Rain = 0
KDC1 180522Z 34004KT 03/M02 A3015 RMK A01 T00291018  RH  071%=      5-min Rain = 0
KDC1 180523Z 34004KT 03/M02 A3015 RMK A01 T00301016  RH  072%=      5-min Rain = 0
KDC1 180524Z 33004KT 03/M01 A3014 RMK A01 T00311013  RH  072%=      5-min Rain = 0
KDC1 180525Z 33004KT 03/M01 A3014 RMK A01 T00331013  RH  072%=      5-min Rain = 0
KDC1 180526Z 32004KT 04/M01 A3014 RMK A01 T00351012  RH  071%=      5-min Rain = 0
KDC1 180527Z 32004KT 04/M01 A3015 RMK A01 T00371012  RH  071%=      5-min Rain = 0
KDC1 180528Z 32004KT 04/M01 A3015 RMK A01 T00371012  RH  070%=      5-min Rain = 0
KDC1 180529Z 32004KT 04/M01 A3015 RMK A01 T00381012  RH  070%=      5-min Rain = 0
KDC1 180530Z 32003KT 04/M01 A3015 RMK A01 T00391012  RH  069%=      5-min Rain = 0
KDC1 180531Z 33003KT 04/M01 A3014 RMK A01 T00391012  RH  069%=      5-min Rain = 0
KDC1 180532Z 33003KT 04/M01 A3014 RMK A01 T00401013  RH  069%=      5-min Rain = 0
KDC1 180533Z 33002KT 04/M01 A3014 RMK A01 T00391014  RH  069%=      5-min Rain = 0
KDC1 180534Z 31002KT 04/M02 A3014 RMK A01 T00381015  RH  068%=      5-min Rain = 0
KDC1 180535Z 31003KT 04/M02 A3015 RMK A01 T00371016  RH  069%=      5-min Rain = 0
KDC1 180536Z 30003KT 04/M02 A3015 RMK A01 T00361015  RH  069%=      5-min Rain = 0
KDC1 180537Z 30004KT 04/M01 A3015 RMK A01 T00371013  RH  070%=      5-min Rain = 0
KDC1 180538Z 30004KT 04/M01 A3015 RMK A01 T00381013  RH  069%=      5-min Rain = 0
KDC1 180539Z 30004KT 04/M01 A3014 RMK A01 T00381013  RH  069%=      5-min Rain = 0
KDC1 180540Z 31005KT 04/M01 A3014 RMK A01 T00381013  RH  069%=      5-min Rain = 0
KDC1 180541Z 31005KT 04/M01 A3014 RMK A01 T00381013  RH  069%=      5-min Rain = 0
KDC1 180542Z 30005KT 04/M01 A3014 RMK A01 T00381013  RH  069%=      5-min Rain = 0
KDC1 180543Z 30004KT 04/M01 A3015 RMK A01 T00371013  RH  070%=      5-min Rain = 0
KDC1 180544Z 30003KT 04/M01 A3015 RMK A01 T00361013  RH  070%=      5-min Rain = 0
KDC1 180545Z 29002KT 04/M01 A3015 RMK A01 T00361013  RH  071%=      5-min Rain = 0
KDC1 180546Z 28001KT 04/M01 A3015 RMK A01 T00361012  RH  071%=      5-min Rain = 0
KDC1 180547Z 29001KT 04/M01 A3015 RMK A01 T00371011  RH  071%=      5-min Rain = 0
KDC1 180548Z 27000KT 04/M01 A3015 RMK A01 T00371011  RH  071%=      5-min Rain = 0
KDC1 180549Z 22000KT 04/M01 A3015 RMK A01 T00371012  RH  071%=      5-min Rain = 0
KDC1 180550Z 17000KT 04/M01 A3015 RMK A01 T00351013  RH  071%=      5-min Rain = 0
KDC1 180551Z 27000KT 03/M02 A3015 RMK A01 T00321016  RH  071%=      5-min Rain = 0
KDC1 180552Z 30002KT 03/M02 A3015 RMK A01 T00291018  RH  071%=      5-min Rain = 0
KDC1 180553Z 29004KT 03/M02 A3015 RMK A01 T00281015  RH  073%=      5-min Rain = 0
KDC1 180554Z 29005KT 03/M01 A3015 RMK A01 T00301012  RH  074%=      5-min Rain = 0
KDC1 180555Z 29005KT 03/M01 A3015 RMK A01 T00321012  RH  073%=      5-min Rain = 0
KDC1 180556Z 29004KT 03/M01 A3015 RMK A01 T00341013  RH  072%=      5-min Rain = 0
KDC1 180557Z 31003KT 04/M01 A3015 RMK A01 T00351012  RH  071%=      5-min Rain = 0
KDC1 180558Z 31002KT 04/M01 A3015 RMK A01 T00361013  RH  070%=      5-min Rain = 0
KDC1 180559Z 29003KT 04/M01 A3015 RMK A01 T00361014  RH  070%=      5-min Rain = 0

Page generated in 0.0815 seconds.